<?xml version="1.0" encoding="UTF-8"?>
<gpx version="1.1" creator="https://www.youtrack.es" xsi:schemaLocation="http://www.topografix.com/GPX/1/1 http://www.topografix.com/GPX/1/1/gpx.xsd http://www.garmin.com/xmlschemas/GpxExtensions/v3 http://www.garmin.com/xmlschemas/GpxExtensionsv3.xsd http://www.garmin.com/xmlschemas/TrackPointExtension/v1 http://www.garmin.com/xmlschemas/TrackPointExtensionv1.xsd" xmlns:gpxtpx="http://www.garmin.com/xmlschemas/TrackPointExtension/v1" xmlns:gpxx="http://www.garmin.com/xmlschemas/GpxExtensions/v3" xmlns:xsi="http://www.w3.org/2001/XMLSchema-instance">
  <metadata>
    <author>
      <name>lo makot</name>
      <email id="lomakotalguaire" domain="gmail.com"/>
    </author>
    <link href="https://www.youtrack.es">
      <text>YouTrack.es</text>
    </link>
    <time>2026-05-07T20:58:45Z</time>
  </metadata>
  <trk>
    <src>https://www.youtrack.es</src>
    <link href="https://www.youtrack.es/ruta/28972-caminada-sagrat-cor-trail-2022">
      <text>YouTrack.es</text>
    </link>
    <trkseg>
      <trkpt lat="41.733569" lon="0.582412">
        <ele>304.472</ele>
        <time>1998-12-06T18:41:37Z</time>
      </trkpt>
      <trkpt lat="41.733553" lon="0.58246">
        <ele>305.213</ele>
        <time>1998-12-06T18:41:40Z</time>
      </trkpt>
      <trkpt lat="41.733456" lon="0.582691">
        <ele>305.014</ele>
        <time>1998-12-06T18:41:48Z</time>
      </trkpt>
      <trkpt lat="41.733367" lon="0.582905">
        <ele>304.608</ele>
        <time>1998-12-06T18:41:56Z</time>
      </trkpt>
      <trkpt lat="41.733368" lon="0.582964">
        <ele>305.08</ele>
        <time>1998-12-06T18:41:59Z</time>
      </trkpt>
      <trkpt lat="41.733499" lon="0.58317">
        <ele>304.688</ele>
        <time>1998-12-06T18:42:07Z</time>
      </trkpt>
      <trkpt lat="41.733648" lon="0.583339">
        <ele>304.838</ele>
        <time>1998-12-06T18:42:14Z</time>
      </trkpt>
      <trkpt lat="41.733707" lon="0.583409">
        <ele>305.087</ele>
        <time>1998-12-06T18:42:17Z</time>
      </trkpt>
      <trkpt lat="41.733788" lon="0.583498">
        <ele>305.897</ele>
        <time>1998-12-06T18:42:21Z</time>
      </trkpt>
      <trkpt lat="41.733891" lon="0.583506">
        <ele>307.029</ele>
        <time>1998-12-06T18:42:26Z</time>
      </trkpt>
      <trkpt lat="41.733993" lon="0.583488">
        <ele>308.069</ele>
        <time>1998-12-06T18:42:30Z</time>
      </trkpt>
      <trkpt lat="41.734057" lon="0.583476">
        <ele>309.215</ele>
        <time>1998-12-06T18:42:34Z</time>
      </trkpt>
      <trkpt lat="41.73416" lon="0.583438">
        <ele>310.297</ele>
        <time>1998-12-06T18:42:39Z</time>
      </trkpt>
      <trkpt lat="41.734187" lon="0.583398">
        <ele>310.623</ele>
        <time>1998-12-06T18:42:41Z</time>
      </trkpt>
      <trkpt lat="41.734204" lon="0.583179">
        <ele>310.625</ele>
        <time>1998-12-06T18:42:47Z</time>
      </trkpt>
      <trkpt lat="41.734217" lon="0.583064">
        <ele>311.608</ele>
        <time>1998-12-06T18:42:50Z</time>
      </trkpt>
      <trkpt lat="41.734252" lon="0.582803">
        <ele>312.692</ele>
        <time>1998-12-06T18:42:57Z</time>
      </trkpt>
      <trkpt lat="41.734262" lon="0.582769">
        <ele>312.89</ele>
        <time>1998-12-06T18:42:58Z</time>
      </trkpt>
      <trkpt lat="41.734348" lon="0.58261">
        <ele>314.05</ele>
        <time>1998-12-06T18:43:04Z</time>
      </trkpt>
      <trkpt lat="41.734419" lon="0.582535">
        <ele>315.289</ele>
        <time>1998-12-06T18:43:08Z</time>
      </trkpt>
      <trkpt lat="41.734507" lon="0.582418">
        <ele>316.469</ele>
        <time>1998-12-06T18:43:13Z</time>
      </trkpt>
      <trkpt lat="41.734552" lon="0.58231">
        <ele>317.671</ele>
        <time>1998-12-06T18:43:17Z</time>
      </trkpt>
      <trkpt lat="41.734589" lon="0.582144">
        <ele>318.671</ele>
        <time>1998-12-06T18:43:22Z</time>
      </trkpt>
      <trkpt lat="41.734646" lon="0.582001">
        <ele>319.667</ele>
        <time>1998-12-06T18:43:27Z</time>
      </trkpt>
      <trkpt lat="41.734694" lon="0.581914">
        <ele>320.652</ele>
        <time>1998-12-06T18:43:30Z</time>
      </trkpt>
      <trkpt lat="41.734709" lon="0.581885">
        <ele>320.653</ele>
        <time>1998-12-06T18:43:31Z</time>
      </trkpt>
      <trkpt lat="41.734814" lon="0.581658">
        <ele>321.608</ele>
        <time>1998-12-06T18:43:39Z</time>
      </trkpt>
      <trkpt lat="41.734823" lon="0.581619">
        <ele>321.808</ele>
        <time>1998-12-06T18:43:40Z</time>
      </trkpt>
      <trkpt lat="41.734894" lon="0.581436">
        <ele>323.068</ele>
        <time>1998-12-06T18:43:46Z</time>
      </trkpt>
      <trkpt lat="41.734957" lon="0.581249">
        <ele>324.216</ele>
        <time>1998-12-06T18:43:52Z</time>
      </trkpt>
      <trkpt lat="41.73501" lon="0.58107">
        <ele>325.216</ele>
        <time>1998-12-06T18:43:58Z</time>
      </trkpt>
      <trkpt lat="41.735057" lon="0.580919">
        <ele>326.275</ele>
        <time>1998-12-06T18:44:03Z</time>
      </trkpt>
      <trkpt lat="41.735132" lon="0.580775">
        <ele>327.215</ele>
        <time>1998-12-06T18:44:09Z</time>
      </trkpt>
      <trkpt lat="41.735198" lon="0.580667">
        <ele>328.417</ele>
        <time>1998-12-06T18:44:14Z</time>
      </trkpt>
      <trkpt lat="41.735208" lon="0.580643">
        <ele>328.637</ele>
        <time>1998-12-06T18:44:15Z</time>
      </trkpt>
      <trkpt lat="41.735276" lon="0.580392">
        <ele>329.213</ele>
        <time>1998-12-06T18:44:23Z</time>
      </trkpt>
      <trkpt lat="41.735286" lon="0.58024">
        <ele>329.082</ele>
        <time>1998-12-06T18:44:27Z</time>
      </trkpt>
      <trkpt lat="41.735162" lon="0.580029">
        <ele>328.243</ele>
        <time>1998-12-06T18:44:35Z</time>
      </trkpt>
      <trkpt lat="41.735004" lon="0.579876">
        <ele>327.617</ele>
        <time>1998-12-06T18:44:42Z</time>
      </trkpt>
      <trkpt lat="41.734915" lon="0.579656">
        <ele>328.008</ele>
        <time>1998-12-06T18:44:50Z</time>
      </trkpt>
      <trkpt lat="41.734923" lon="0.579625">
        <ele>328.081</ele>
        <time>1998-12-06T18:44:51Z</time>
      </trkpt>
      <trkpt lat="41.735015" lon="0.579394">
        <ele>328.029</ele>
        <time>1998-12-06T18:44:59Z</time>
      </trkpt>
      <trkpt lat="41.734969" lon="0.579265">
        <ele>328.079</ele>
        <time>1998-12-06T18:45:04Z</time>
      </trkpt>
      <trkpt lat="41.734887" lon="0.579232">
        <ele>328.078</ele>
        <time>1998-12-06T18:45:09Z</time>
      </trkpt>
      <trkpt lat="41.734774" lon="0.579251">
        <ele>327.848</ele>
        <time>1998-12-06T18:45:15Z</time>
      </trkpt>
      <trkpt lat="41.734619" lon="0.579394">
        <ele>327.67</ele>
        <time>1998-12-06T18:45:23Z</time>
      </trkpt>
      <trkpt lat="41.734456" lon="0.579499">
        <ele>328.63</ele>
        <time>1998-12-06T18:45:30Z</time>
      </trkpt>
      <trkpt lat="41.734271" lon="0.579451">
        <ele>329.496</ele>
        <time>1998-12-06T18:45:37Z</time>
      </trkpt>
      <trkpt lat="41.734214" lon="0.579455">
        <ele>329.436</ele>
        <time>1998-12-06T18:45:39Z</time>
      </trkpt>
      <trkpt lat="41.734046" lon="0.579549">
        <ele>329.217</ele>
        <time>1998-12-06T18:45:46Z</time>
      </trkpt>
      <trkpt lat="41.733874" lon="0.579577">
        <ele>328.418</ele>
        <time>1998-12-06T18:45:52Z</time>
      </trkpt>
      <trkpt lat="41.733674" lon="0.579584">
        <ele>328.008</ele>
        <time>1998-12-06T18:45:59Z</time>
      </trkpt>
      <trkpt lat="41.733514" lon="0.579449">
        <ele>327.616</ele>
        <time>1998-12-06T18:46:05Z</time>
      </trkpt>
      <trkpt lat="41.733433" lon="0.579411">
        <ele>327.434</ele>
        <time>1998-12-06T18:46:08Z</time>
      </trkpt>
      <trkpt lat="41.733249" lon="0.57928">
        <ele>327.814</ele>
        <time>1998-12-06T18:46:15Z</time>
      </trkpt>
      <trkpt lat="41.733106" lon="0.579076">
        <ele>328.033</ele>
        <time>1998-12-06T18:46:22Z</time>
      </trkpt>
      <trkpt lat="41.73296" lon="0.578899">
        <ele>327.823</ele>
        <time>1998-12-06T18:46:29Z</time>
      </trkpt>
      <trkpt lat="41.732779" lon="0.57881">
        <ele>328.215</ele>
        <time>1998-12-06T18:46:36Z</time>
      </trkpt>
      <trkpt lat="41.732758" lon="0.578792">
        <ele>328.475</ele>
        <time>1998-12-06T18:46:37Z</time>
      </trkpt>
      <trkpt lat="41.732694" lon="0.578656">
        <ele>329.691</ele>
        <time>1998-12-06T18:46:43Z</time>
      </trkpt>
      <trkpt lat="41.732674" lon="0.578618">
        <ele>330.611</ele>
        <time>1998-12-06T18:46:45Z</time>
      </trkpt>
      <trkpt lat="41.732648" lon="0.578584">
        <ele>331.821</ele>
        <time>1998-12-06T18:46:47Z</time>
      </trkpt>
      <trkpt lat="41.732618" lon="0.578553">
        <ele>332.803</ele>
        <time>1998-12-06T18:46:49Z</time>
      </trkpt>
      <trkpt lat="41.732602" lon="0.578547">
        <ele>333.008</ele>
        <time>1998-12-06T18:46:50Z</time>
      </trkpt>
      <trkpt lat="41.732433" lon="0.578703">
        <ele>333.054</ele>
        <time>1998-12-06T18:46:58Z</time>
      </trkpt>
      <trkpt lat="41.732294" lon="0.578867">
        <ele>331.882</ele>
        <time>1998-12-06T18:47:05Z</time>
      </trkpt>
      <trkpt lat="41.732202" lon="0.578916">
        <ele>330.652</ele>
        <time>1998-12-06T18:47:08Z</time>
      </trkpt>
      <trkpt lat="41.732172" lon="0.578918">
        <ele>330.291</ele>
        <time>1998-12-06T18:47:09Z</time>
      </trkpt>
      <trkpt lat="41.732119" lon="0.57889">
        <ele>329.481</ele>
        <time>1998-12-06T18:47:11Z</time>
      </trkpt>
      <trkpt lat="41.73208" lon="0.578875">
        <ele>328.473</ele>
        <time>1998-12-06T18:47:13Z</time>
      </trkpt>
      <trkpt lat="41.732009" lon="0.578912">
        <ele>327.663</ele>
        <time>1998-12-06T18:47:17Z</time>
      </trkpt>
      <trkpt lat="41.731845" lon="0.579002">
        <ele>327.499</ele>
        <time>1998-12-06T18:47:25Z</time>
      </trkpt>
      <trkpt lat="41.731823" lon="0.579005">
        <ele>327.486</ele>
        <time>1998-12-06T18:47:26Z</time>
      </trkpt>
      <trkpt lat="41.731714" lon="0.579045">
        <ele>327.66</ele>
        <time>1998-12-06T18:47:31Z</time>
      </trkpt>
      <trkpt lat="41.731582" lon="0.579174">
        <ele>327.826</ele>
        <time>1998-12-06T18:47:37Z</time>
      </trkpt>
      <trkpt lat="41.731469" lon="0.579362">
        <ele>327.608</ele>
        <time>1998-12-06T18:47:43Z</time>
      </trkpt>
      <trkpt lat="41.731351" lon="0.579548">
        <ele>327.411</ele>
        <time>1998-12-06T18:47:49Z</time>
      </trkpt>
      <trkpt lat="41.731252" lon="0.57977">
        <ele>327.289</ele>
        <time>1998-12-06T18:47:56Z</time>
      </trkpt>
      <trkpt lat="41.731145" lon="0.579997">
        <ele>327.419</ele>
        <time>1998-12-06T18:48:03Z</time>
      </trkpt>
      <trkpt lat="41.731033" lon="0.580214">
        <ele>327.288</ele>
        <time>1998-12-06T18:48:10Z</time>
      </trkpt>
      <trkpt lat="41.730833" lon="0.580197">
        <ele>327.298</ele>
        <time>1998-12-06T18:48:17Z</time>
      </trkpt>
      <trkpt lat="41.730685" lon="0.580347">
        <ele>327.28</ele>
        <time>1998-12-06T18:48:24Z</time>
      </trkpt>
      <trkpt lat="41.730564" lon="0.580577">
        <ele>326.88</ele>
        <time>1998-12-06T18:48:31Z</time>
      </trkpt>
      <trkpt lat="41.730381" lon="0.580661">
        <ele>327.276</ele>
        <time>1998-12-06T18:48:38Z</time>
      </trkpt>
      <trkpt lat="41.730177" lon="0.580671">
        <ele>327.285</ele>
        <time>1998-12-06T18:48:45Z</time>
      </trkpt>
      <trkpt lat="41.730021" lon="0.58051">
        <ele>327.089</ele>
        <time>1998-12-06T18:48:51Z</time>
      </trkpt>
      <trkpt lat="41.7299" lon="0.580325">
        <ele>326.817</ele>
        <time>1998-12-06T18:48:57Z</time>
      </trkpt>
      <trkpt lat="41.729815" lon="0.580294">
        <ele>326.608</ele>
        <time>1998-12-06T18:49:00Z</time>
      </trkpt>
      <trkpt lat="41.729609" lon="0.580299">
        <ele>326.661</ele>
        <time>1998-12-06T18:49:07Z</time>
      </trkpt>
      <trkpt lat="41.72944" lon="0.580205">
        <ele>326.829</ele>
        <time>1998-12-06T18:49:14Z</time>
      </trkpt>
      <trkpt lat="41.729346" lon="0.580011">
        <ele>326.419</ele>
        <time>1998-12-06T18:49:20Z</time>
      </trkpt>
      <trkpt lat="41.729229" lon="0.579812">
        <ele>325.878</ele>
        <time>1998-12-06T18:49:27Z</time>
      </trkpt>
      <trkpt lat="41.729066" lon="0.579788">
        <ele>326.428</ele>
        <time>1998-12-06T18:49:34Z</time>
      </trkpt>
      <trkpt lat="41.729009" lon="0.580033">
        <ele>326.21</ele>
        <time>1998-12-06T18:49:41Z</time>
      </trkpt>
      <trkpt lat="41.72895" lon="0.580291">
        <ele>327.09</ele>
        <time>1998-12-06T18:49:48Z</time>
      </trkpt>
      <trkpt lat="41.728871" lon="0.58034">
        <ele>327.086</ele>
        <time>1998-12-06T18:49:51Z</time>
      </trkpt>
      <trkpt lat="41.728702" lon="0.580249">
        <ele>326.884</ele>
        <time>1998-12-06T18:49:57Z</time>
      </trkpt>
      <trkpt lat="41.728529" lon="0.580125">
        <ele>326.607</ele>
        <time>1998-12-06T18:50:04Z</time>
      </trkpt>
      <trkpt lat="41.728414" lon="0.580293">
        <ele>326.617</ele>
        <time>1998-12-06T18:50:11Z</time>
      </trkpt>
      <trkpt lat="41.728332" lon="0.580455">
        <ele>326.808</ele>
        <time>1998-12-06T18:50:16Z</time>
      </trkpt>
      <trkpt lat="41.728135" lon="0.580399">
        <ele>326.811</ele>
        <time>1998-12-06T18:50:24Z</time>
      </trkpt>
      <trkpt lat="41.728038" lon="0.58029">
        <ele>326.829</ele>
        <time>1998-12-06T18:50:28Z</time>
      </trkpt>
      <trkpt lat="41.727925" lon="0.580254">
        <ele>326.639</ele>
        <time>1998-12-06T18:50:34Z</time>
      </trkpt>
      <trkpt lat="41.727903" lon="0.580488">
        <ele>326.858</ele>
        <time>1998-12-06T18:50:41Z</time>
      </trkpt>
      <trkpt lat="41.727794" lon="0.580683">
        <ele>327.068</ele>
        <time>1998-12-06T18:50:47Z</time>
      </trkpt>
      <trkpt lat="41.727617" lon="0.580688">
        <ele>327.27</ele>
        <time>1998-12-06T18:50:53Z</time>
      </trkpt>
      <trkpt lat="41.727513" lon="0.580485">
        <ele>327.02</ele>
        <time>1998-12-06T18:50:59Z</time>
      </trkpt>
      <trkpt lat="41.727371" lon="0.580313">
        <ele>326.836</ele>
        <time>1998-12-06T18:51:06Z</time>
      </trkpt>
      <trkpt lat="41.727266" lon="0.580333">
        <ele>326.636</ele>
        <time>1998-12-06T18:51:10Z</time>
      </trkpt>
      <trkpt lat="41.727143" lon="0.580526">
        <ele>327.017</ele>
        <time>1998-12-06T18:51:18Z</time>
      </trkpt>
      <trkpt lat="41.727121" lon="0.580595">
        <ele>327.218</ele>
        <time>1998-12-06T18:51:22Z</time>
      </trkpt>
      <trkpt lat="41.727095" lon="0.580699">
        <ele>327.408</ele>
        <time>1998-12-06T18:51:25Z</time>
      </trkpt>
      <trkpt lat="41.726902" lon="0.580763">
        <ele>327.046</ele>
        <time>1998-12-06T18:51:32Z</time>
      </trkpt>
      <trkpt lat="41.726706" lon="0.58068">
        <ele>327.014</ele>
        <time>1998-12-06T18:51:39Z</time>
      </trkpt>
      <trkpt lat="41.726516" lon="0.580577">
        <ele>327.424</ele>
        <time>1998-12-06T18:51:46Z</time>
      </trkpt>
      <trkpt lat="41.72633" lon="0.580615">
        <ele>327.273</ele>
        <time>1998-12-06T18:51:53Z</time>
      </trkpt>
      <trkpt lat="41.726177" lon="0.5808">
        <ele>327.093</ele>
        <time>1998-12-06T18:52:01Z</time>
      </trkpt>
      <trkpt lat="41.726012" lon="0.580917">
        <ele>327.235</ele>
        <time>1998-12-06T18:52:08Z</time>
      </trkpt>
      <trkpt lat="41.725843" lon="0.580824">
        <ele>327.655</ele>
        <time>1998-12-06T18:52:14Z</time>
      </trkpt>
      <trkpt lat="41.725718" lon="0.580741">
        <ele>327.281</ele>
        <time>1998-12-06T18:52:20Z</time>
      </trkpt>
      <trkpt lat="41.725743" lon="0.580728">
        <ele>327.282</ele>
        <time>1998-12-06T18:57:51Z</time>
      </trkpt>
      <trkpt lat="41.725743" lon="0.580732">
        <ele>327.243</ele>
        <time>1998-12-06T18:57:57Z</time>
      </trkpt>
      <trkpt lat="41.725698" lon="0.580736">
        <ele>327.217</ele>
        <time>1998-12-06T18:58:43Z</time>
      </trkpt>
      <trkpt lat="41.72551" lon="0.580781">
        <ele>327.208</ele>
        <time>1998-12-06T18:58:51Z</time>
      </trkpt>
      <trkpt lat="41.72532" lon="0.580736">
        <ele>327.671</ele>
        <time>1998-12-06T18:58:58Z</time>
      </trkpt>
      <trkpt lat="41.725292" lon="0.580735">
        <ele>327.669</ele>
        <time>1998-12-06T18:58:59Z</time>
      </trkpt>
      <trkpt lat="41.725098" lon="0.580818">
        <ele>326.829</ele>
        <time>1998-12-06T18:59:06Z</time>
      </trkpt>
      <trkpt lat="41.724949" lon="0.580765">
        <ele>327.248</ele>
        <time>1998-12-06T18:59:11Z</time>
      </trkpt>
      <trkpt lat="41.724894" lon="0.580529">
        <ele>327.098</ele>
        <time>1998-12-06T18:59:17Z</time>
      </trkpt>
      <trkpt lat="41.724834" lon="0.580261">
        <ele>327.02</ele>
        <time>1998-12-06T18:59:24Z</time>
      </trkpt>
      <trkpt lat="41.724764" lon="0.580033">
        <ele>326.88</ele>
        <time>1998-12-06T18:59:30Z</time>
      </trkpt>
      <trkpt lat="41.724732" lon="0.579966">
        <ele>326.846</ele>
        <time>1998-12-06T18:59:32Z</time>
      </trkpt>
      <trkpt lat="41.724721" lon="0.579888">
        <ele>326.863</ele>
        <time>1998-12-06T18:59:34Z</time>
      </trkpt>
      <trkpt lat="41.72474" lon="0.579721">
        <ele>326.244</ele>
        <time>1998-12-06T18:59:38Z</time>
      </trkpt>
      <trkpt lat="41.724763" lon="0.579469">
        <ele>326.418</ele>
        <time>1998-12-06T18:59:44Z</time>
      </trkpt>
      <trkpt lat="41.724763" lon="0.579197">
        <ele>326.808</ele>
        <time>1998-12-06T18:59:51Z</time>
      </trkpt>
      <trkpt lat="41.724757" lon="0.578958">
        <ele>326.259</ele>
        <time>1998-12-06T18:59:57Z</time>
      </trkpt>
      <trkpt lat="41.724763" lon="0.578879">
        <ele>326.487</ele>
        <time>1998-12-06T18:59:59Z</time>
      </trkpt>
      <trkpt lat="41.72486" lon="0.578673">
        <ele>326.647</ele>
        <time>1998-12-06T19:00:05Z</time>
      </trkpt>
      <trkpt lat="41.724973" lon="0.578439">
        <ele>326.696</ele>
        <time>1998-12-06T19:00:12Z</time>
      </trkpt>
      <trkpt lat="41.725007" lon="0.578328">
        <ele>326.446</ele>
        <time>1998-12-06T19:00:15Z</time>
      </trkpt>
      <trkpt lat="41.725063" lon="0.578061">
        <ele>326.628</ele>
        <time>1998-12-06T19:00:22Z</time>
      </trkpt>
      <trkpt lat="41.725131" lon="0.577818">
        <ele>326.678</ele>
        <time>1998-12-06T19:00:29Z</time>
      </trkpt>
      <trkpt lat="41.725187" lon="0.577589">
        <ele>326.894</ele>
        <time>1998-12-06T19:00:35Z</time>
      </trkpt>
      <trkpt lat="41.725167" lon="0.577506">
        <ele>326.811</ele>
        <time>1998-12-06T19:00:38Z</time>
      </trkpt>
      <trkpt lat="41.724997" lon="0.577587">
        <ele>326.621</ele>
        <time>1998-12-06T19:00:46Z</time>
      </trkpt>
      <trkpt lat="41.724832" lon="0.577752">
        <ele>326.003</ele>
        <time>1998-12-06T19:00:53Z</time>
      </trkpt>
      <trkpt lat="41.724687" lon="0.577829">
        <ele>325.608</ele>
        <time>1998-12-06T19:00:59Z</time>
      </trkpt>
      <trkpt lat="41.724654" lon="0.577821">
        <ele>325.854</ele>
        <time>1998-12-06T19:01:01Z</time>
      </trkpt>
      <trkpt lat="41.724485" lon="0.577922">
        <ele>325.872</ele>
        <time>1998-12-06T19:01:08Z</time>
      </trkpt>
      <trkpt lat="41.72432" lon="0.578086">
        <ele>325.612</ele>
        <time>1998-12-06T19:01:15Z</time>
      </trkpt>
      <trkpt lat="41.724182" lon="0.578283">
        <ele>325.241</ele>
        <time>1998-12-06T19:01:22Z</time>
      </trkpt>
      <trkpt lat="41.72416" lon="0.578309">
        <ele>325.281</ele>
        <time>1998-12-06T19:01:23Z</time>
      </trkpt>
      <trkpt lat="41.724011" lon="0.578443">
        <ele>325.693</ele>
        <time>1998-12-06T19:01:29Z</time>
      </trkpt>
      <trkpt lat="41.723832" lon="0.57847">
        <ele>325.483</ele>
        <time>1998-12-06T19:01:35Z</time>
      </trkpt>
      <trkpt lat="41.723685" lon="0.578496">
        <ele>325.219</ele>
        <time>1998-12-06T19:01:40Z</time>
      </trkpt>
      <trkpt lat="41.723523" lon="0.578603">
        <ele>325.281</ele>
        <time>1998-12-06T19:01:46Z</time>
      </trkpt>
      <trkpt lat="41.72337" lon="0.578739">
        <ele>325.661</ele>
        <time>1998-12-06T19:01:53Z</time>
      </trkpt>
      <trkpt lat="41.723205" lon="0.578894">
        <ele>325.817</ele>
        <time>1998-12-06T19:02:00Z</time>
      </trkpt>
      <trkpt lat="41.723138" lon="0.578968">
        <ele>326.408</ele>
        <time>1998-12-06T19:02:03Z</time>
      </trkpt>
      <trkpt lat="41.722962" lon="0.579108">
        <ele>326.641</ele>
        <time>1998-12-06T19:02:10Z</time>
      </trkpt>
      <trkpt lat="41.722796" lon="0.579267">
        <ele>326.879</ele>
        <time>1998-12-06T19:02:17Z</time>
      </trkpt>
      <trkpt lat="41.72263" lon="0.579418">
        <ele>327.229</ele>
        <time>1998-12-06T19:02:24Z</time>
      </trkpt>
      <trkpt lat="41.722552" lon="0.579462">
        <ele>327.428</ele>
        <time>1998-12-06T19:02:27Z</time>
      </trkpt>
      <trkpt lat="41.72244" lon="0.57968">
        <ele>327.688</ele>
        <time>1998-12-06T19:02:34Z</time>
      </trkpt>
      <trkpt lat="41.722396" lon="0.579945">
        <ele>328.26</ele>
        <time>1998-12-06T19:02:41Z</time>
      </trkpt>
      <trkpt lat="41.722403" lon="0.580091">
        <ele>328.43</ele>
        <time>1998-12-06T19:02:45Z</time>
      </trkpt>
      <trkpt lat="41.722391" lon="0.580305">
        <ele>329.456</ele>
        <time>1998-12-06T19:02:51Z</time>
      </trkpt>
      <trkpt lat="41.72237" lon="0.580404">
        <ele>330.855</ele>
        <time>1998-12-06T19:02:54Z</time>
      </trkpt>
      <trkpt lat="41.722294" lon="0.580639">
        <ele>331.207</ele>
        <time>1998-12-06T19:03:01Z</time>
      </trkpt>
      <trkpt lat="41.722207" lon="0.580771">
        <ele>329.617</ele>
        <time>1998-12-06T19:03:05Z</time>
      </trkpt>
      <trkpt lat="41.722089" lon="0.580829">
        <ele>328.408</ele>
        <time>1998-12-06T19:03:09Z</time>
      </trkpt>
      <trkpt lat="41.721885" lon="0.58086">
        <ele>327.858</ele>
        <time>1998-12-06T19:03:16Z</time>
      </trkpt>
      <trkpt lat="41.721859" lon="0.580848">
        <ele>327.896</ele>
        <time>1998-12-06T19:03:17Z</time>
      </trkpt>
      <trkpt lat="41.721817" lon="0.580786">
        <ele>327.816</ele>
        <time>1998-12-06T19:03:19Z</time>
      </trkpt>
      <trkpt lat="41.721805" lon="0.580654">
        <ele>327.285</ele>
        <time>1998-12-06T19:03:22Z</time>
      </trkpt>
      <trkpt lat="41.721798" lon="0.580515">
        <ele>326.215</ele>
        <time>1998-12-06T19:03:25Z</time>
      </trkpt>
      <trkpt lat="41.721732" lon="0.580253">
        <ele>325.257</ele>
        <time>1998-12-06T19:03:32Z</time>
      </trkpt>
      <trkpt lat="41.721636" lon="0.580086">
        <ele>325.067</ele>
        <time>1998-12-06T19:03:37Z</time>
      </trkpt>
      <trkpt lat="41.721524" lon="0.579867">
        <ele>325.423</ele>
        <time>1998-12-06T19:03:43Z</time>
      </trkpt>
      <trkpt lat="41.721394" lon="0.579692">
        <ele>325.021</ele>
        <time>1998-12-06T19:03:49Z</time>
      </trkpt>
      <trkpt lat="41.721201" lon="0.579596">
        <ele>325.241</ele>
        <time>1998-12-06T19:03:56Z</time>
      </trkpt>
      <trkpt lat="41.720999" lon="0.579634">
        <ele>325.405</ele>
        <time>1998-12-06T19:04:03Z</time>
      </trkpt>
      <trkpt lat="41.720808" lon="0.579748">
        <ele>325.008</ele>
        <time>1998-12-06T19:04:10Z</time>
      </trkpt>
      <trkpt lat="41.720669" lon="0.579827">
        <ele>325.235</ele>
        <time>1998-12-06T19:04:15Z</time>
      </trkpt>
      <trkpt lat="41.720575" lon="0.579791">
        <ele>325.233</ele>
        <time>1998-12-06T19:04:18Z</time>
      </trkpt>
      <trkpt lat="41.720461" lon="0.579693">
        <ele>325.463</ele>
        <time>1998-12-06T19:04:22Z</time>
      </trkpt>
      <trkpt lat="41.720349" lon="0.579517">
        <ele>324.842</ele>
        <time>1998-12-06T19:04:27Z</time>
      </trkpt>
      <trkpt lat="41.720253" lon="0.579297">
        <ele>324.852</ele>
        <time>1998-12-06T19:04:33Z</time>
      </trkpt>
      <trkpt lat="41.720122" lon="0.579087">
        <ele>324.454</ele>
        <time>1998-12-06T19:04:40Z</time>
      </trkpt>
      <trkpt lat="41.719968" lon="0.578962">
        <ele>324.674</ele>
        <time>1998-12-06T19:04:46Z</time>
      </trkpt>
      <trkpt lat="41.719792" lon="0.578883">
        <ele>324.89</ele>
        <time>1998-12-06T19:04:52Z</time>
      </trkpt>
      <trkpt lat="41.719618" lon="0.578767">
        <ele>324.687</ele>
        <time>1998-12-06T19:04:59Z</time>
      </trkpt>
      <trkpt lat="41.719548" lon="0.578724">
        <ele>324.242</ele>
        <time>1998-12-06T19:05:03Z</time>
      </trkpt>
      <trkpt lat="41.7187114251655" lon="0.5781233310699464"/>
      <trkpt lat="41.718487153848564" lon="0.5781662464141847"/>
      <trkpt lat="41.718246862283344" lon="0.5784773826599122"/>
      <trkpt lat="41.71801457958292" lon="0.5785417556762696"/>
      <trkpt lat="41.71783035477527" lon="0.5786812305450441"/>
      <trkpt lat="41.71759006075428" lon="0.5790460109710694"/>
      <trkpt lat="41.71745389374355" lon="0.5791532993316652"/>
      <trkpt lat="41.71723762789828" lon="0.5788850784301759"/>
      <trkpt lat="41.7170293712113" lon="0.5786490440368653"/>
      <trkpt lat="41.71641260706424" lon="0.5790889263153077"/>
      <trkpt lat="41.71608419776594" lon="0.578981637954712"/>
      <trkpt lat="41.71569971645507" lon="0.57928204536438"/>
      <trkpt lat="41.71542737413499" lon="0.579206943511963"/>
      <trkpt lat="41.715299212643885" lon="0.5794966220855714"/>
      <trkpt lat="41.71517105089721" lon="0.5795931816101075"/>
      <trkpt lat="41.71505089902759" lon="0.5795180797576905"/>
      <trkpt lat="41.714978807798005" lon="0.5790460109710694"/>
      <trkpt lat="41.71485064541245" lon="0.5790245532989503"/>
      <trkpt lat="41.714498197534404" lon="0.5792605876922609"/>
      <trkpt lat="41.71437804440696" lon="0.5794107913970948"/>
      <trkpt lat="41.713993552889804" lon="0.5793786048889161"/>
      <trkpt lat="41.71360905907267" lon="0.579131841659546"/>
      <trkpt lat="41.71367314153524" lon="0.5785632133483888"/>
      <trkpt lat="41.71360104876034" lon="0.5784344673156739"/>
      <trkpt lat="41.713312676852155" lon="0.5783057212829591"/>
      <trkpt lat="41.71324058367296" lon="0.5780696868896485"/>
      <trkpt lat="41.713232573314734" lon="0.5778014659881593"/>
      <trkpt lat="41.71273592915455" lon="0.5773079395294191"/>
      <trkpt lat="41.7128000124876" lon="0.5770075321197511"/>
      <trkpt lat="41.712559699659174" lon="0.5765676498413087"/>
      <trkpt lat="41.71264781446727" lon="0.5762779712677003"/>
      <trkpt lat="41.712596118450165" lon="0.5764045380055904">
        <ele>329.20001220703125</ele>
        <time>2022-01-07T08:47:33.000Z</time>
      </trkpt>
      <trkpt lat="41.712595196440816" lon="0.5763731058686972">
        <ele>329</ele>
        <time>2022-01-07T08:47:34.000Z</time>
      </trkpt>
      <trkpt lat="41.71265454031527" lon="0.5762130953371525">
        <ele>329</ele>
        <time>2022-01-07T08:47:39.000Z</time>
      </trkpt>
      <trkpt lat="41.71275126747787" lon="0.5759747978299856">
        <ele>328.6000061035156</ele>
        <time>2022-01-07T08:47:46.000Z</time>
      </trkpt>
      <trkpt lat="41.71275411732495" lon="0.5759009532630444">
        <ele>328.3999938964844</ele>
        <time>2022-01-07T08:47:48.000Z</time>
      </trkpt>
      <trkpt lat="41.71274540014565" lon="0.5758261866867542">
        <ele>328.3999938964844</ele>
        <time>2022-01-07T08:47:50.000Z</time>
      </trkpt>
      <trkpt lat="41.71269862912595" lon="0.5756962671875954">
        <ele>328.3999938964844</ele>
        <time>2022-01-07T08:47:54.000Z</time>
      </trkpt>
      <trkpt lat="41.712591676041484" lon="0.5755375977605581">
        <ele>328.6000061035156</ele>
        <time>2022-01-07T08:48:00.000Z</time>
      </trkpt>
      <trkpt lat="41.71251028776169" lon="0.5754199996590614">
        <ele>328.6000061035156</ele>
        <time>2022-01-07T08:48:04.000Z</time>
      </trkpt>
      <trkpt lat="41.7124061845243" lon="0.5752208456397057">
        <ele>328.3999938964844</ele>
        <time>2022-01-07T08:48:10.000Z</time>
      </trkpt>
      <trkpt lat="41.71239738352597" lon="0.575184216722846">
        <ele>328.3999938964844</ele>
        <time>2022-01-07T08:48:11.000Z</time>
      </trkpt>
      <trkpt lat="41.71240584924817" lon="0.5749399680644274">
        <ele>328.20001220703125</ele>
        <time>2022-01-07T08:48:17.000Z</time>
      </trkpt>
      <trkpt lat="41.71243669465184" lon="0.5747826397418976">
        <ele>328.20001220703125</ele>
        <time>2022-01-07T08:48:21.000Z</time>
      </trkpt>
      <trkpt lat="41.71249000355601" lon="0.5745891854166985">
        <ele>328.20001220703125</ele>
        <time>2022-01-07T08:48:26.000Z</time>
      </trkpt>
      <trkpt lat="41.7125787679106" lon="0.5743708368390799">
        <ele>328</ele>
        <time>2022-01-07T08:48:32.000Z</time>
      </trkpt>
      <trkpt lat="41.712621012702584" lon="0.5742661468684673">
        <ele>328</ele>
        <time>2022-01-07T08:48:35.000Z</time>
      </trkpt>
      <trkpt lat="41.71271547675133" lon="0.5740204732865095">
        <ele>328.20001220703125</ele>
        <time>2022-01-07T08:48:42.000Z</time>
      </trkpt>
      <trkpt lat="41.712715812027454" lon="0.5739892926067114">
        <ele>328.20001220703125</ele>
        <time>2022-01-07T08:48:43.000Z</time>
      </trkpt>
      <trkpt lat="41.71271136961877" lon="0.5739602074027061">
        <ele>328</ele>
        <time>2022-01-07T08:48:44.000Z</time>
      </trkpt>
      <trkpt lat="41.71269359998405" lon="0.5739079881459475">
        <ele>327.79998779296875</ele>
        <time>2022-01-07T08:48:46.000Z</time>
      </trkpt>
      <trkpt lat="41.71265638433397" lon="0.5738798249512911">
        <ele>327.79998779296875</ele>
        <time>2022-01-07T08:48:48.000Z</time>
      </trkpt>
      <trkpt lat="41.712596118450165" lon="0.5738818366080523">
        <ele>327.79998779296875</ele>
        <time>2022-01-07T08:48:51.000Z</time>
      </trkpt>
      <trkpt lat="41.71259695664048" lon="0.5738742928951979">
        <ele>327.79998779296875</ele>
        <time>2022-01-07T08:48:52.000Z</time>
      </trkpt>
      <trkpt lat="41.712599555030465" lon="0.5738115962594748">
        <ele>327.79998779296875</ele>
        <time>2022-01-07T08:48:56.000Z</time>
      </trkpt>
      <trkpt lat="41.71259209513664" lon="0.5737912282347679">
        <ele>328</ele>
        <time>2022-01-07T08:48:57.000Z</time>
      </trkpt>
      <trkpt lat="41.7125703021884" lon="0.5737473908811808">
        <ele>328.3999938964844</ele>
        <time>2022-01-07T08:49:00.000Z</time>
      </trkpt>
      <trkpt lat="41.71257189475" lon="0.5736866220831871">
        <ele>329.3999938964844</ele>
        <time>2022-01-07T08:49:04.000Z</time>
      </trkpt>
      <trkpt lat="41.712578516453505" lon="0.5736225843429565">
        <ele>330.3999938964844</ele>
        <time>2022-01-07T08:49:08.000Z</time>
      </trkpt>
      <trkpt lat="41.71259159222245" lon="0.5735589656978846">
        <ele>331.20001220703125</ele>
        <time>2022-01-07T08:49:12.000Z</time>
      </trkpt>
      <trkpt lat="41.7125977948308" lon="0.5735469795763493">
        <ele>331.3999938964844</ele>
        <time>2022-01-07T08:49:13.000Z</time>
      </trkpt>
      <trkpt lat="41.71260802075267" lon="0.573536166921258">
        <ele>331.6000061035156</ele>
        <time>2022-01-07T08:49:14.000Z</time>
      </trkpt>
      <trkpt lat="41.71268790028989" lon="0.5734717939049006">
        <ele>332</ele>
        <time>2022-01-07T08:49:19.000Z</time>
      </trkpt>
      <trkpt lat="41.71280164271593" lon="0.573309101164341">
        <ele>331</ele>
        <time>2022-01-07T08:49:25.000Z</time>
      </trkpt>
      <trkpt lat="41.71292913146317" lon="0.5731975380331278">
        <ele>332</ele>
        <time>2022-01-07T08:49:31.000Z</time>
      </trkpt>
      <trkpt lat="41.7130206618458" lon="0.5731401219964027">
        <ele>332.79998779296875</ele>
        <time>2022-01-07T08:49:35.000Z</time>
      </trkpt>
      <trkpt lat="41.713067181408405" lon="0.573126208037138">
        <ele>333.20001220703125</ele>
        <time>2022-01-07T08:49:37.000Z</time>
      </trkpt>
      <trkpt lat="41.71313432045281" lon="0.5731615796685219">
        <ele>333.3999938964844</ele>
        <time>2022-01-07T08:49:40.000Z</time>
      </trkpt>
      <trkpt lat="41.71318016946316" lon="0.5732174031436443">
        <ele>333</ele>
        <time>2022-01-07T08:49:42.000Z</time>
      </trkpt>
      <trkpt lat="41.713262060657144" lon="0.5732566304504871">
        <ele>332.79998779296875</ele>
        <time>2022-01-07T08:49:45.000Z</time>
      </trkpt>
      <trkpt lat="41.71330983750522" lon="0.5732409562915564">
        <ele>333</ele>
        <time>2022-01-07T08:49:47.000Z</time>
      </trkpt>
      <trkpt lat="41.71339340507984" lon="0.5731578078120947">
        <ele>334</ele>
        <time>2022-01-07T08:49:52.000Z</time>
      </trkpt>
      <trkpt lat="41.7134094145149" lon="0.5731412954628468">
        <ele>334.3999938964844</ele>
        <time>2022-01-07T08:49:53.000Z</time>
      </trkpt>
      <trkpt lat="41.71346163377166" lon="0.5730957817286253">
        <ele>335</ele>
        <time>2022-01-07T08:49:56.000Z</time>
      </trkpt>
      <trkpt lat="41.71353564597666" lon="0.5730376113206148">
        <ele>336.20001220703125</ele>
        <time>2022-01-07T08:50:00.000Z</time>
      </trkpt>
      <trkpt lat="41.71355391852558" lon="0.573023110628128">
        <ele>336.3999938964844</ele>
        <time>2022-01-07T08:50:01.000Z</time>
      </trkpt>
      <trkpt lat="41.71359172090888" lon="0.5729859787970781">
        <ele>337.20001220703125</ele>
        <time>2022-01-07T08:50:03.000Z</time>
      </trkpt>
      <trkpt lat="41.7136443592608" lon="0.5729262996464968">
        <ele>337.79998779296875</ele>
        <time>2022-01-07T08:50:06.000Z</time>
      </trkpt>
      <trkpt lat="41.713661290705204" lon="0.5729060992598534">
        <ele>338.20001220703125</ele>
        <time>2022-01-07T08:50:07.000Z</time>
      </trkpt>
      <trkpt lat="41.713688196614385" lon="0.5728662852197886">
        <ele>338.6000061035156</ele>
        <time>2022-01-07T08:50:09.000Z</time>
      </trkpt>
      <trkpt lat="41.71373186632991" lon="0.5727943684905767">
        <ele>339.20001220703125</ele>
        <time>2022-01-07T08:50:12.000Z</time>
      </trkpt>
      <trkpt lat="41.713753240182996" lon="0.5727235414087772">
        <ele>339.79998779296875</ele>
        <time>2022-01-07T08:50:15.000Z</time>
      </trkpt>
      <trkpt lat="41.71377754770219" lon="0.5726728308945894">
        <ele>340.20001220703125</ele>
        <time>2022-01-07T08:50:17.000Z</time>
      </trkpt>
      <trkpt lat="41.713830353692174" lon="0.572633184492588">
        <ele>340.79998779296875</ele>
        <time>2022-01-07T08:50:20.000Z</time>
      </trkpt>
      <trkpt lat="41.71393680386245" lon="0.5726368725299835">
        <ele>340.6000061035156</ele>
        <time>2022-01-07T08:50:26.000Z</time>
      </trkpt>
      <trkpt lat="41.71400503255427" lon="0.5726728308945894">
        <ele>340.6000061035156</ele>
        <time>2022-01-07T08:50:32.000Z</time>
      </trkpt>
      <trkpt lat="41.71407728455961" lon="0.5727509502321482">
        <ele>341.3999938964844</ele>
        <time>2022-01-07T08:50:38.000Z</time>
      </trkpt>
      <trkpt lat="41.71412866562605" lon="0.5728102941066027">
        <ele>341.79998779296875</ele>
        <time>2022-01-07T08:50:42.000Z</time>
      </trkpt>
      <trkpt lat="41.714226147159934" lon="0.5730032455176115">
        <ele>341.3999938964844</ele>
        <time>2022-01-07T08:50:51.000Z</time>
      </trkpt>
      <trkpt lat="41.71435732394457" lon="0.5731407925486565">
        <ele>341.6000061035156</ele>
        <time>2022-01-07T08:50:58.000Z</time>
      </trkpt>
      <trkpt lat="41.71441297978163" lon="0.5731797683984041">
        <ele>342.3999938964844</ele>
        <time>2022-01-07T08:51:01.000Z</time>
      </trkpt>
      <trkpt lat="41.7144610080868" lon="0.5731941014528275">
        <ele>343.3999938964844</ele>
        <time>2022-01-07T08:51:04.000Z</time>
      </trkpt>
      <trkpt lat="41.71447802335024" lon="0.5731970351189375">
        <ele>343.6000061035156</ele>
        <time>2022-01-07T08:51:05.000Z</time>
      </trkpt>
      <trkpt lat="41.714666951447725" lon="0.5732674431055784">
        <ele>344</ele>
        <time>2022-01-07T08:51:13.000Z</time>
      </trkpt>
      <trkpt lat="41.71468463726342" lon="0.5734004639089108">
        <ele>342.6000061035156</ele>
        <time>2022-01-07T08:51:17.000Z</time>
      </trkpt>
      <trkpt lat="41.71465932391584" lon="0.573454275727272">
        <ele>342.3999938964844</ele>
        <time>2022-01-07T08:51:19.000Z</time>
      </trkpt>
      <trkpt lat="41.71461699530482" lon="0.5735000409185886">
        <ele>342.20001220703125</ele>
        <time>2022-01-07T08:51:21.000Z</time>
      </trkpt>
      <trkpt lat="41.714565362781286" lon="0.573646891862154">
        <ele>342.3999938964844</ele>
        <time>2022-01-07T08:51:26.000Z</time>
      </trkpt>
      <trkpt lat="41.714574079960585" lon="0.5736745521426201">
        <ele>342.3999938964844</ele>
        <time>2022-01-07T08:51:27.000Z</time>
      </trkpt>
      <trkpt lat="41.71463644132018" lon="0.573724340647459">
        <ele>343.20001220703125</ele>
        <time>2022-01-07T08:51:30.000Z</time>
      </trkpt>
      <trkpt lat="41.71465463005006" lon="0.5737307947129011">
        <ele>343.79998779296875</ele>
        <time>2022-01-07T08:51:31.000Z</time>
      </trkpt>
      <trkpt lat="41.71473836526275" lon="0.573730543255806">
        <ele>345</ele>
        <time>2022-01-07T08:51:35.000Z</time>
      </trkpt>
      <trkpt lat="41.714759822934866" lon="0.5737235024571419">
        <ele>345.20001220703125</ele>
        <time>2022-01-07T08:51:36.000Z</time>
      </trkpt>
      <trkpt lat="41.71491254121065" lon="0.5736183933913708">
        <ele>346</ele>
        <time>2022-01-07T08:51:43.000Z</time>
      </trkpt>
      <trkpt lat="41.714937603101134" lon="0.5736103467643261">
        <ele>346.20001220703125</ele>
        <time>2022-01-07T08:51:44.000Z</time>
      </trkpt>
      <trkpt lat="41.715107252821326" lon="0.5735525116324425">
        <ele>346.79998779296875</ele>
        <time>2022-01-07T08:51:51.000Z</time>
      </trkpt>
      <trkpt lat="41.71517875045538" lon="0.5735303834080696">
        <ele>347.20001220703125</ele>
        <time>2022-01-07T08:51:54.000Z</time>
      </trkpt>
      <trkpt lat="41.71529450453818" lon="0.573506997898221">
        <ele>348.20001220703125</ele>
        <time>2022-01-07T08:51:59.000Z</time>
      </trkpt>
      <trkpt lat="41.71540506184101" lon="0.5735212471336126">
        <ele>349.3999938964844</ele>
        <time>2022-01-07T08:52:04.000Z</time>
      </trkpt>
      <trkpt lat="41.71547278761864" lon="0.5735096801072359">
        <ele>350</ele>
        <time>2022-01-07T08:52:07.000Z</time>
      </trkpt>
      <trkpt lat="41.71553950756788" lon="0.573524683713913">
        <ele>350.6000061035156</ele>
        <time>2022-01-07T08:52:10.000Z</time>
      </trkpt>
      <trkpt lat="41.71564352698624" lon="0.5735489912331104">
        <ele>351.6000061035156</ele>
        <time>2022-01-07T08:52:15.000Z</time>
      </trkpt>
      <trkpt lat="41.71567521058023" lon="0.5735601391643286">
        <ele>352</ele>
        <time>2022-01-07T08:52:16.000Z</time>
      </trkpt>
      <trkpt lat="41.715765399858356" lon="0.573574723675847">
        <ele>352.79998779296875</ele>
        <time>2022-01-07T08:52:20.000Z</time>
      </trkpt>
      <trkpt lat="41.71580797992647" lon="0.573588302358985">
        <ele>353.3999938964844</ele>
        <time>2022-01-07T08:52:22.000Z</time>
      </trkpt>
      <trkpt lat="41.71586640179157" lon="0.5736121069639921">
        <ele>353.79998779296875</ele>
        <time>2022-01-07T08:52:25.000Z</time>
      </trkpt>
      <trkpt lat="41.71589666046202" lon="0.5736354924738407">
        <ele>355</ele>
        <time>2022-01-07T08:52:28.000Z</time>
      </trkpt>
      <trkpt lat="41.71592004597187" lon="0.5736632365733385">
        <ele>356</ele>
        <time>2022-01-07T08:52:32.000Z</time>
      </trkpt>
      <trkpt lat="41.715937312692404" lon="0.5736740492284298">
        <ele>356.6000061035156</ele>
        <time>2022-01-07T08:52:34.000Z</time>
      </trkpt>
      <trkpt lat="41.71595759689808" lon="0.5736768990755081">
        <ele>357.20001220703125</ele>
        <time>2022-01-07T08:52:36.000Z</time>
      </trkpt>
      <trkpt lat="41.71602599322796" lon="0.5736497417092323">
        <ele>357.79998779296875</ele>
        <time>2022-01-07T08:52:41.000Z</time>
      </trkpt>
      <trkpt lat="41.71612096019089" lon="0.5736187286674976">
        <ele>357.79998779296875</ele>
        <time>2022-01-07T08:52:48.000Z</time>
      </trkpt>
      <trkpt lat="41.71614686027169" lon="0.5736152920871973">
        <ele>358.20001220703125</ele>
        <time>2022-01-07T08:52:50.000Z</time>
      </trkpt>
      <trkpt lat="41.71621089801192" lon="0.5736205726861954">
        <ele>359.3999938964844</ele>
        <time>2022-01-07T08:52:55.000Z</time>
      </trkpt>
      <trkpt lat="41.71622305177152" lon="0.5736243445426226">
        <ele>359.6000061035156</ele>
        <time>2022-01-07T08:52:56.000Z</time>
      </trkpt>
      <trkpt lat="41.7162742651999" lon="0.5736777372658253">
        <ele>360.6000061035156</ele>
        <time>2022-01-07T08:53:03.000Z</time>
      </trkpt>
      <trkpt lat="41.71629052609205" lon="0.5737018771469593">
        <ele>361.79998779296875</ele>
        <time>2022-01-07T08:53:06.000Z</time>
      </trkpt>
      <trkpt lat="41.71630988828838" lon="0.5737496539950371">
        <ele>362.79998779296875</ele>
        <time>2022-01-07T08:53:10.000Z</time>
      </trkpt>
      <trkpt lat="41.71631625853479" lon="0.5737592093646526">
        <ele>363</ele>
        <time>2022-01-07T08:53:11.000Z</time>
      </trkpt>
      <trkpt lat="41.716321455314755" lon="0.573778236284852">
        <ele>364</ele>
        <time>2022-01-07T08:53:13.000Z</time>
      </trkpt>
      <trkpt lat="41.71633687801659" lon="0.5738060642033815">
        <ele>365</ele>
        <time>2022-01-07T08:53:16.000Z</time>
      </trkpt>
      <trkpt lat="41.71635841950774" lon="0.5738237500190735">
        <ele>366.20001220703125</ele>
        <time>2022-01-07T08:53:19.000Z</time>
      </trkpt>
      <trkpt lat="41.716368393972516" lon="0.5738295335322618">
        <ele>366.6000061035156</ele>
        <time>2022-01-07T08:53:20.000Z</time>
      </trkpt>
      <trkpt lat="41.71641801483929" lon="0.5738485604524612">
        <ele>367.3999938964844</ele>
        <time>2022-01-07T08:53:24.000Z</time>
      </trkpt>
      <trkpt lat="41.71645640395582" lon="0.5738465487957001">
        <ele>367.6000061035156</ele>
        <time>2022-01-07T08:53:27.000Z</time>
      </trkpt>
      <trkpt lat="41.716560423374176" lon="0.5738115962594748">
        <ele>368.20001220703125</ele>
        <time>2022-01-07T08:53:32.000Z</time>
      </trkpt>
      <trkpt lat="41.71661825850606" lon="0.5737709440290928">
        <ele>368.3999938964844</ele>
        <time>2022-01-07T08:53:35.000Z</time>
      </trkpt>
      <trkpt lat="41.71675756573677" lon="0.5737115163356066">
        <ele>369</ele>
        <time>2022-01-07T08:53:41.000Z</time>
      </trkpt>
      <trkpt lat="41.716961497440934" lon="0.5737476423382759">
        <ele>368.3999938964844</ele>
        <time>2022-01-07T08:53:49.000Z</time>
      </trkpt>
      <trkpt lat="41.7169891577214" lon="0.5737427808344364">
        <ele>368.20001220703125</ele>
        <time>2022-01-07T08:53:50.000Z</time>
      </trkpt>
      <trkpt lat="41.71700877137482" lon="0.5737244244664907">
        <ele>368.20001220703125</ele>
        <time>2022-01-07T08:53:51.000Z</time>
      </trkpt>
      <trkpt lat="41.71702872030437" lon="0.5736702773720026">
        <ele>368</ele>
        <time>2022-01-07T08:53:53.000Z</time>
      </trkpt>
      <trkpt lat="41.71702922321856" lon="0.5736046470701694">
        <ele>367.79998779296875</ele>
        <time>2022-01-07T08:53:55.000Z</time>
      </trkpt>
      <trkpt lat="41.716998629271984" lon="0.5735534336417913">
        <ele>367.3999938964844</ele>
        <time>2022-01-07T08:53:57.000Z</time>
      </trkpt>
      <trkpt lat="41.7169579770416" lon="0.5735205765813589">
        <ele>366.20001220703125</ele>
        <time>2022-01-07T08:53:59.000Z</time>
      </trkpt>
      <trkpt lat="41.7168942745775" lon="0.5734487436711788">
        <ele>365.20001220703125</ele>
        <time>2022-01-07T08:54:02.000Z</time>
      </trkpt>
      <trkpt lat="41.71687834896147" lon="0.5734232626855373">
        <ele>364.79998779296875</ele>
        <time>2022-01-07T08:54:03.000Z</time>
      </trkpt>
      <trkpt lat="41.71684389933944" lon="0.5733220092952251">
        <ele>364.20001220703125</ele>
        <time>2022-01-07T08:54:06.000Z</time>
      </trkpt>
      <trkpt lat="41.71685001812875" lon="0.5732179060578346">
        <ele>363.3999938964844</ele>
        <time>2022-01-07T08:54:09.000Z</time>
      </trkpt>
      <trkpt lat="41.71688606031239" lon="0.5731401219964027">
        <ele>363.20001220703125</ele>
        <time>2022-01-07T08:54:12.000Z</time>
      </trkpt>
      <trkpt lat="41.716933250427246" lon="0.5730315763503313">
        <ele>363.6000061035156</ele>
        <time>2022-01-07T08:54:16.000Z</time>
      </trkpt>
      <trkpt lat="41.71695152297616" lon="0.5729734897613525">
        <ele>363.79998779296875</ele>
        <time>2022-01-07T08:54:18.000Z</time>
      </trkpt>
      <trkpt lat="41.71703735366464" lon="0.5727889202535152">
        <ele>363.6000061035156</ele>
        <time>2022-01-07T08:54:24.000Z</time>
      </trkpt>
      <trkpt lat="41.71718646772206" lon="0.5726628564298153">
        <ele>364.6000061035156</ele>
        <time>2022-01-07T08:54:31.000Z</time>
      </trkpt>
      <trkpt lat="41.717256624251604" lon="0.5726362019777298">
        <ele>365.3999938964844</ele>
        <time>2022-01-07T08:54:34.000Z</time>
      </trkpt>
      <trkpt lat="41.71735653653741" lon="0.5726099666208029">
        <ele>366</ele>
        <time>2022-01-07T08:54:38.000Z</time>
      </trkpt>
      <trkpt lat="41.71740607358515" lon="0.5726009141653776">
        <ele>366.3999938964844</ele>
        <time>2022-01-07T08:54:40.000Z</time>
      </trkpt>
      <trkpt lat="41.71754973940551" lon="0.5725904367864132">
        <ele>367.6000061035156</ele>
        <time>2022-01-07T08:54:46.000Z</time>
      </trkpt>
      <trkpt lat="41.71762249432504" lon="0.5725983995944262">
        <ele>368.20001220703125</ele>
        <time>2022-01-07T08:54:49.000Z</time>
      </trkpt>
      <trkpt lat="41.717658871784806" lon="0.5725719965994358">
        <ele>368.6000061035156</ele>
        <time>2022-01-07T08:54:51.000Z</time>
      </trkpt>
      <trkpt lat="41.71769801527262" lon="0.5725072883069515">
        <ele>369</ele>
        <time>2022-01-07T08:54:54.000Z</time>
      </trkpt>
      <trkpt lat="41.71772944740951" lon="0.5723932944238186">
        <ele>369.20001220703125</ele>
        <time>2022-01-07T08:54:58.000Z</time>
      </trkpt>
      <trkpt lat="41.7177421040833" lon="0.5723436735570431">
        <ele>369.6000061035156</ele>
        <time>2022-01-07T08:55:00.000Z</time>
      </trkpt>
      <trkpt lat="41.71775199472904" lon="0.5723215453326702">
        <ele>369.79998779296875</ele>
        <time>2022-01-07T08:55:01.000Z</time>
      </trkpt>
      <trkpt lat="41.717799520120025" lon="0.5722755286842585">
        <ele>370.6000061035156</ele>
        <time>2022-01-07T08:55:06.000Z</time>
      </trkpt>
      <trkpt lat="41.71782969497144" lon="0.5722748581320047">
        <ele>370.6000061035156</ele>
        <time>2022-01-07T08:55:08.000Z</time>
      </trkpt>
      <trkpt lat="41.71791510656476" lon="0.5722869280725718">
        <ele>370.79998779296875</ele>
        <time>2022-01-07T08:55:13.000Z</time>
      </trkpt>
      <trkpt lat="41.717935390770435" lon="0.5722776241600513">
        <ele>370.79998779296875</ele>
        <time>2022-01-07T08:55:15.000Z</time>
      </trkpt>
      <trkpt lat="41.71800630167127" lon="0.5722726788371801">
        <ele>370.79998779296875</ele>
        <time>2022-01-07T08:55:20.000Z</time>
      </trkpt>
      <trkpt lat="41.718153739348054" lon="0.5722755286842585">
        <ele>371.3999938964844</ele>
        <time>2022-01-07T08:55:30.000Z</time>
      </trkpt>
      <trkpt lat="41.71824426390231" lon="0.5722659733146429">
        <ele>371.6000061035156</ele>
        <time>2022-01-07T08:55:36.000Z</time>
      </trkpt>
      <trkpt lat="41.7182912863791" lon="0.5722604412585497">
        <ele>371.79998779296875</ele>
        <time>2022-01-07T08:55:39.000Z</time>
      </trkpt>
      <trkpt lat="41.71833529137075" lon="0.5722645483911037">
        <ele>371.79998779296875</ele>
        <time>2022-01-07T08:55:42.000Z</time>
      </trkpt>
      <trkpt lat="41.7184398137033" lon="0.5722670629620552">
        <ele>372</ele>
        <time>2022-01-07T08:55:49.000Z</time>
      </trkpt>
      <trkpt lat="41.718474347144365" lon="0.5722705833613873">
        <ele>372</ele>
        <time>2022-01-07T08:55:51.000Z</time>
      </trkpt>
      <trkpt lat="41.71859672293067" lon="0.5722710862755775">
        <ele>372.3999938964844</ele>
        <time>2022-01-07T08:55:59.000Z</time>
      </trkpt>
      <trkpt lat="41.71864525415003" lon="0.5722779594361782">
        <ele>372.20001220703125</ele>
        <time>2022-01-07T08:56:03.000Z</time>
      </trkpt>
      <trkpt lat="41.71870677731931" lon="0.5722866766154766">
        <ele>372</ele>
        <time>2022-01-07T08:56:07.000Z</time>
      </trkpt>
      <trkpt lat="41.71873929910362" lon="0.5722865089774132">
        <ele>372</ele>
        <time>2022-01-07T08:56:09.000Z</time>
      </trkpt>
      <trkpt lat="41.718812473118305" lon="0.5722944717854261">
        <ele>372</ele>
        <time>2022-01-07T08:56:14.000Z</time>
      </trkpt>
      <trkpt lat="41.718845246359706" lon="0.5722957290709019">
        <ele>372.20001220703125</ele>
        <time>2022-01-07T08:56:16.000Z</time>
      </trkpt>
      <trkpt lat="41.71894415281713" lon="0.5723581742495298">
        <ele>372.6000061035156</ele>
        <time>2022-01-07T08:56:23.000Z</time>
      </trkpt>
      <trkpt lat="41.71896267682314" lon="0.5723777040839195">
        <ele>372.79998779296875</ele>
        <time>2022-01-07T08:56:25.000Z</time>
      </trkpt>
      <trkpt lat="41.71900366432965" lon="0.5724332761019468">
        <ele>371.6000061035156</ele>
        <time>2022-01-07T08:56:29.000Z</time>
      </trkpt>
      <trkpt lat="41.71905051916838" lon="0.5725228786468506">
        <ele>371.3999938964844</ele>
        <time>2022-01-07T08:56:34.000Z</time>
      </trkpt>
      <trkpt lat="41.71906887553632" lon="0.5725585855543613">
        <ele>371.3999938964844</ele>
        <time>2022-01-07T08:56:36.000Z</time>
      </trkpt>
      <trkpt lat="41.719105085358024" lon="0.5726812966167927">
        <ele>371.79998779296875</ele>
        <time>2022-01-07T08:56:43.000Z</time>
      </trkpt>
      <trkpt lat="41.719111958518624" lon="0.5727367009967566">
        <ele>372.20001220703125</ele>
        <time>2022-01-07T08:56:46.000Z</time>
      </trkpt>
      <trkpt lat="41.719116400927305" lon="0.5727771017700434">
        <ele>372.20001220703125</ele>
        <time>2022-01-07T08:56:48.000Z</time>
      </trkpt>
      <trkpt lat="41.71914934180677" lon="0.5729397106915712">
        <ele>372.79998779296875</ele>
        <time>2022-01-07T08:56:55.000Z</time>
      </trkpt>
      <trkpt lat="41.71916023828089" lon="0.5729900021106005">
        <ele>373</ele>
        <time>2022-01-07T08:56:58.000Z</time>
      </trkpt>
      <trkpt lat="41.71917909756303" lon="0.5730782635509968">
        <ele>372.79998779296875</ele>
        <time>2022-01-07T08:57:03.000Z</time>
      </trkpt>
      <trkpt lat="41.71919225715101" lon="0.5731223523616791">
        <ele>372.79998779296875</ele>
        <time>2022-01-07T08:57:05.000Z</time>
      </trkpt>
      <trkpt lat="41.71920164488256" lon="0.5731604062020779">
        <ele>372.79998779296875</ele>
        <time>2022-01-07T08:57:07.000Z</time>
      </trkpt>
      <trkpt lat="41.719260988757014" lon="0.5734225083142519">
        <ele>372.3999938964844</ele>
        <time>2022-01-07T08:57:18.000Z</time>
      </trkpt>
      <trkpt lat="41.719267359003425" lon="0.5734638310968876">
        <ele>372.20001220703125</ele>
        <time>2022-01-07T08:57:19.000Z</time>
      </trkpt>
      <trkpt lat="41.71926970593631" lon="0.5734926648437977">
        <ele>372.20001220703125</ele>
        <time>2022-01-07T08:57:20.000Z</time>
      </trkpt>
      <trkpt lat="41.7192892357707" lon="0.573601545765996">
        <ele>372</ele>
        <time>2022-01-07T08:57:23.000Z</time>
      </trkpt>
      <trkpt lat="41.719310861080885" lon="0.5737157911062241">
        <ele>372.3999938964844</ele>
        <time>2022-01-07T08:57:26.000Z</time>
      </trkpt>
      <trkpt lat="41.719315722584724" lon="0.5737553536891937">
        <ele>372.20001220703125</ele>
        <time>2022-01-07T08:57:27.000Z</time>
      </trkpt>
      <trkpt lat="41.719357296824455" lon="0.5739830061793327">
        <ele>372.3999938964844</ele>
        <time>2022-01-07T08:57:33.000Z</time>
      </trkpt>
      <trkpt lat="41.71938051469624" lon="0.5741192121058702">
        <ele>372.20001220703125</ele>
        <time>2022-01-07T08:57:37.000Z</time>
      </trkpt>
      <trkpt lat="41.71941085718572" lon="0.5742208007723093">
        <ele>372.20001220703125</ele>
        <time>2022-01-07T08:57:40.000Z</time>
      </trkpt>
      <trkpt lat="41.71944924630225" lon="0.5744538176804781">
        <ele>372.3999938964844</ele>
        <time>2022-01-07T08:57:46.000Z</time>
      </trkpt>
      <trkpt lat="41.71948662959039" lon="0.5746929533779621">
        <ele>372.6000061035156</ele>
        <time>2022-01-07T08:57:52.000Z</time>
      </trkpt>
      <trkpt lat="41.719490736722946" lon="0.5747330188751221">
        <ele>372.6000061035156</ele>
        <time>2022-01-07T08:57:53.000Z</time>
      </trkpt>
      <trkpt lat="41.719499956816435" lon="0.5748919397592545">
        <ele>372</ele>
        <time>2022-01-07T08:57:57.000Z</time>
      </trkpt>
      <trkpt lat="41.71950154937804" lon="0.5749640241265297">
        <ele>371.79998779296875</ele>
        <time>2022-01-07T08:57:59.000Z</time>
      </trkpt>
      <trkpt lat="41.71954035758972" lon="0.5752384476363659">
        <ele>372</ele>
        <time>2022-01-07T08:58:06.000Z</time>
      </trkpt>
      <trkpt lat="41.71954471617937" lon="0.5752664431929588">
        <ele>372</ele>
        <time>2022-01-07T08:58:07.000Z</time>
      </trkpt>
      <trkpt lat="41.71959483996034" lon="0.5754453130066395">
        <ele>372.3999938964844</ele>
        <time>2022-01-07T08:58:12.000Z</time>
      </trkpt>
      <trkpt lat="41.719618225470185" lon="0.5755168944597244">
        <ele>372.3999938964844</ele>
        <time>2022-01-07T08:58:14.000Z</time>
      </trkpt>
      <trkpt lat="41.71973833814263" lon="0.5756129510700703">
        <ele>372.3999938964844</ele>
        <time>2022-01-07T08:58:19.000Z</time>
      </trkpt>
      <trkpt lat="41.71987630426884" lon="0.5756287090480328">
        <ele>372.79998779296875</ele>
        <time>2022-01-07T08:58:24.000Z</time>
      </trkpt>
      <trkpt lat="41.7198970913887" lon="0.5756502505391836">
        <ele>372.79998779296875</ele>
        <time>2022-01-07T08:58:25.000Z</time>
      </trkpt>
      <trkpt lat="41.72005676664412" lon="0.575774135068059">
        <ele>372.79998779296875</ele>
        <time>2022-01-07T08:58:31.000Z</time>
      </trkpt>
      <trkpt lat="41.720172856003046" lon="0.5758075788617134">
        <ele>372.79998779296875</ele>
        <time>2022-01-07T08:58:35.000Z</time>
      </trkpt>
      <trkpt lat="41.72026203945279" lon="0.575806237757206">
        <ele>372.79998779296875</ele>
        <time>2022-01-07T08:58:38.000Z</time>
      </trkpt>
      <trkpt lat="41.72044954262674" lon="0.5757775716483593">
        <ele>373.20001220703125</ele>
        <time>2022-01-07T08:58:45.000Z</time>
      </trkpt>
      <trkpt lat="41.720644757151604" lon="0.5757506657391787">
        <ele>373</ele>
        <time>2022-01-07T08:58:51.000Z</time>
      </trkpt>
      <trkpt lat="41.7207052744925" lon="0.5757513362914324">
        <ele>372.79998779296875</ele>
        <time>2022-01-07T08:58:53.000Z</time>
      </trkpt>
      <trkpt lat="41.720878360792994" lon="0.5757719557732344">
        <ele>373</ele>
        <time>2022-01-07T08:58:59.000Z</time>
      </trkpt>
      <trkpt lat="41.72105882316828" lon="0.5757919047027826">
        <ele>372.79998779296875</ele>
        <time>2022-01-07T08:59:05.000Z</time>
      </trkpt>
      <trkpt lat="41.72108338214457" lon="0.5758037231862545">
        <ele>372.79998779296875</ele>
        <time>2022-01-07T08:59:06.000Z</time>
      </trkpt>
      <trkpt lat="41.72124548815191" lon="0.5759442877024412">
        <ele>373</ele>
        <time>2022-01-07T08:59:13.000Z</time>
      </trkpt>
      <trkpt lat="41.721260072663426" lon="0.5759733729064465">
        <ele>373</ele>
        <time>2022-01-07T08:59:14.000Z</time>
      </trkpt>
      <trkpt lat="41.72135545872152" lon="0.5761521589010954">
        <ele>372.79998779296875</ele>
        <time>2022-01-07T08:59:20.000Z</time>
      </trkpt>
      <trkpt lat="41.721481354907155" lon="0.5763204675167799">
        <ele>372</ele>
        <time>2022-01-07T08:59:27.000Z</time>
      </trkpt>
      <trkpt lat="41.721474481746554" lon="0.5763603653758764">
        <ele>371.79998779296875</ele>
        <time>2022-01-07T08:59:28.000Z</time>
      </trkpt>
      <trkpt lat="41.72144883312285" lon="0.5764591880142689">
        <ele>370.6000061035156</ele>
        <time>2022-01-07T08:59:30.000Z</time>
      </trkpt>
      <trkpt lat="41.72144120559096" lon="0.5765013489872217">
        <ele>370.3999938964844</ele>
        <time>2022-01-07T08:59:31.000Z</time>
      </trkpt>
      <trkpt lat="41.72137297689915" lon="0.5766284186393023">
        <ele>371.20001220703125</ele>
        <time>2022-01-07T08:59:36.000Z</time>
      </trkpt>
      <trkpt lat="41.721267867833376" lon="0.5767001677304506">
        <ele>371.3999938964844</ele>
        <time>2022-01-07T08:59:41.000Z</time>
      </trkpt>
      <trkpt lat="41.72111112624407" lon="0.5767578352242708">
        <ele>371.6000061035156</ele>
        <time>2022-01-07T08:59:47.000Z</time>
      </trkpt>
      <trkpt lat="41.72105588950217" lon="0.5767817236483097">
        <ele>371.79998779296875</ele>
        <time>2022-01-07T08:59:49.000Z</time>
      </trkpt>
      <trkpt lat="41.72095103189349" lon="0.5768103059381247">
        <ele>372</ele>
        <time>2022-01-07T08:59:53.000Z</time>
      </trkpt>
      <trkpt lat="41.72080334275961" lon="0.5769778601825237">
        <ele>371.20001220703125</ele>
        <time>2022-01-07T09:00:00.000Z</time>
      </trkpt>
      <trkpt lat="41.72074022702873" lon="0.5771242082118988">
        <ele>371.3999938964844</ele>
        <time>2022-01-07T09:00:05.000Z</time>
      </trkpt>
      <trkpt lat="41.720694126561284" lon="0.5772060994058847">
        <ele>371.3999938964844</ele>
        <time>2022-01-07T09:00:08.000Z</time>
      </trkpt>
      <trkpt lat="41.72055616043508" lon="0.5773777607828379">
        <ele>371.20001220703125</ele>
        <time>2022-01-07T09:00:15.000Z</time>
      </trkpt>
      <trkpt lat="41.72051651403308" lon="0.5774254538118839">
        <ele>371.20001220703125</ele>
        <time>2022-01-07T09:00:17.000Z</time>
      </trkpt>
      <trkpt lat="41.72040998004377" lon="0.5776412878185511">
        <ele>370.79998779296875</ele>
        <time>2022-01-07T09:00:24.000Z</time>
      </trkpt>
      <trkpt lat="41.72039547935128" lon="0.5776729714125395">
        <ele>371</ele>
        <time>2022-01-07T09:00:25.000Z</time>
      </trkpt>
      <trkpt lat="41.72033529728651" lon="0.5777966883033514">
        <ele>371.20001220703125</ele>
        <time>2022-01-07T09:00:29.000Z</time>
      </trkpt>
      <trkpt lat="41.7202633805573" lon="0.5779906455427408">
        <ele>371.3999938964844</ele>
        <time>2022-01-07T09:00:35.000Z</time>
      </trkpt>
      <trkpt lat="41.72026732005179" lon="0.5780231673270464">
        <ele>371.3999938964844</ele>
        <time>2022-01-07T09:00:36.000Z</time>
      </trkpt>
      <trkpt lat="41.7202874366194" lon="0.5780800804495811">
        <ele>371.6000061035156</ele>
        <time>2022-01-07T09:00:38.000Z</time>
      </trkpt>
      <trkpt lat="41.72030981630087" lon="0.5780920665711164">
        <ele>371.6000061035156</ele>
        <time>2022-01-07T09:00:39.000Z</time>
      </trkpt>
      <trkpt lat="41.720467396080494" lon="0.5780926533043385">
        <ele>371.6000061035156</ele>
        <time>2022-01-07T09:00:44.000Z</time>
      </trkpt>
      <trkpt lat="41.720643332228065" lon="0.578068932518363">
        <ele>371.3999938964844</ele>
        <time>2022-01-07T09:00:50.000Z</time>
      </trkpt>
      <trkpt lat="41.72084491699934" lon="0.5781017895787954">
        <ele>371</ele>
        <time>2022-01-07T09:00:57.000Z</time>
      </trkpt>
      <trkpt lat="41.72087509185076" lon="0.5781122669577599">
        <ele>371</ele>
        <time>2022-01-07T09:00:58.000Z</time>
      </trkpt>
      <trkpt lat="41.720981458202004" lon="0.5781602114439011">
        <ele>371</ele>
        <time>2022-01-07T09:01:02.000Z</time>
      </trkpt>
      <trkpt lat="41.72102814540267" lon="0.5781794060021639">
        <ele>371</ele>
        <time>2022-01-07T09:01:04.000Z</time>
      </trkpt>
      <trkpt lat="41.721087489277124" lon="0.5781964212656021">
        <ele>371</ele>
        <time>2022-01-07T09:01:06.000Z</time>
      </trkpt>
      <trkpt lat="41.721164770424366" lon="0.5782224889844656">
        <ele>371.6000061035156</ele>
        <time>2022-01-07T09:01:09.000Z</time>
      </trkpt>
      <trkpt lat="41.721352860331535" lon="0.5782941542565823">
        <ele>371.20001220703125</ele>
        <time>2022-01-07T09:01:16.000Z</time>
      </trkpt>
      <trkpt lat="41.72138689085841" lon="0.5783091578632593">
        <ele>371.20001220703125</ele>
        <time>2022-01-07T09:01:17.000Z</time>
      </trkpt>
      <trkpt lat="41.72156425192952" lon="0.5784145183861256">
        <ele>371.6000061035156</ele>
        <time>2022-01-07T09:01:24.000Z</time>
      </trkpt>
      <trkpt lat="41.721611274406314" lon="0.57844796217978">
        <ele>371.79998779296875</ele>
        <time>2022-01-07T09:01:26.000Z</time>
      </trkpt>
      <trkpt lat="41.72176357358694" lon="0.5785680748522282">
        <ele>372.20001220703125</ele>
        <time>2022-01-07T09:01:33.000Z</time>
      </trkpt>
      <trkpt lat="41.721897600218654" lon="0.5785642191767693">
        <ele>372</ele>
        <time>2022-01-07T09:01:38.000Z</time>
      </trkpt>
      <trkpt lat="41.72205367125571" lon="0.5784429330378771">
        <ele>372.20001220703125</ele>
        <time>2022-01-07T09:01:45.000Z</time>
      </trkpt>
      <trkpt lat="41.722082421183586" lon="0.5784151889383793">
        <ele>372.20001220703125</ele>
        <time>2022-01-07T09:01:46.000Z</time>
      </trkpt>
      <trkpt lat="41.72215098515153" lon="0.5783515702933073">
        <ele>372.20001220703125</ele>
        <time>2022-01-07T09:01:49.000Z</time>
      </trkpt>
      <trkpt lat="41.72219591215253" lon="0.578317204490304">
        <ele>372.3999938964844</ele>
        <time>2022-01-07T09:01:51.000Z</time>
      </trkpt>
      <trkpt lat="41.722237318754196" lon="0.5782799050211906">
        <ele>372.79998779296875</ele>
        <time>2022-01-07T09:01:53.000Z</time>
      </trkpt>
      <trkpt lat="41.72227310948074" lon="0.5781988520175219">
        <ele>373</ele>
        <time>2022-01-07T09:01:56.000Z</time>
      </trkpt>
      <trkpt lat="41.72229465097189" lon="0.5781369935721159">
        <ele>373.3999938964844</ele>
        <time>2022-01-07T09:01:58.000Z</time>
      </trkpt>
      <trkpt lat="41.72231652773917" lon="0.5780822597444057">
        <ele>374</ele>
        <time>2022-01-07T09:02:00.000Z</time>
      </trkpt>
      <trkpt lat="41.72239531762898" lon="0.5778721254318953">
        <ele>374.79998779296875</ele>
        <time>2022-01-07T09:02:07.000Z</time>
      </trkpt>
      <trkpt lat="41.722412668168545" lon="0.5778052378445864">
        <ele>374.79998779296875</ele>
        <time>2022-01-07T09:02:09.000Z</time>
      </trkpt>
      <trkpt lat="41.72247947193682" lon="0.5775816086679697">
        <ele>374.79998779296875</ele>
        <time>2022-01-07T09:02:16.000Z</time>
      </trkpt>
      <trkpt lat="41.72250495292246" lon="0.5775152239948511">
        <ele>375</ele>
        <time>2022-01-07T09:02:18.000Z</time>
      </trkpt>
      <trkpt lat="41.722551975399256" lon="0.5774237774312496">
        <ele>375</ele>
        <time>2022-01-07T09:02:21.000Z</time>
      </trkpt>
      <trkpt lat="41.72263344749808" lon="0.5773232784122229">
        <ele>375</ele>
        <time>2022-01-07T09:02:25.000Z</time>
      </trkpt>
      <trkpt lat="41.72277828678489" lon="0.5771562270820141">
        <ele>375</ele>
        <time>2022-01-07T09:02:32.000Z</time>
      </trkpt>
      <trkpt lat="41.72288884408772" lon="0.5770107172429562">
        <ele>375</ele>
        <time>2022-01-07T09:02:38.000Z</time>
      </trkpt>
      <trkpt lat="41.723038628697395" lon="0.5768474377691746">
        <ele>375.20001220703125</ele>
        <time>2022-01-07T09:02:45.000Z</time>
      </trkpt>
      <trkpt lat="41.72312336973846" lon="0.576685918495059">
        <ele>375.20001220703125</ele>
        <time>2022-01-07T09:02:51.000Z</time>
      </trkpt>
      <trkpt lat="41.723193526268005" lon="0.5765205435454845">
        <ele>375.20001220703125</ele>
        <time>2022-01-07T09:02:57.000Z</time>
      </trkpt>
      <trkpt lat="41.72331263311207" lon="0.5763782188296318">
        <ele>375.3999938964844</ele>
        <time>2022-01-07T09:03:03.000Z</time>
      </trkpt>
      <trkpt lat="41.72339418902993" lon="0.5762424319982529">
        <ele>375.6000061035156</ele>
        <time>2022-01-07T09:03:08.000Z</time>
      </trkpt>
      <trkpt lat="41.72343710437417" lon="0.576210580766201">
        <ele>375.3999938964844</ele>
        <time>2022-01-07T09:03:10.000Z</time>
      </trkpt>
      <trkpt lat="41.72348949126899" lon="0.5762172862887383">
        <ele>375</ele>
        <time>2022-01-07T09:03:12.000Z</time>
      </trkpt>
      <trkpt lat="41.723532658070326" lon="0.5762618780136108">
        <ele>374.3999938964844</ele>
        <time>2022-01-07T09:03:14.000Z</time>
      </trkpt>
      <trkpt lat="41.72354741021991" lon="0.5762931425124407">
        <ele>374.20001220703125</ele>
        <time>2022-01-07T09:03:15.000Z</time>
      </trkpt>
      <trkpt lat="41.723561491817236" lon="0.5763241555541754">
        <ele>374.20001220703125</ele>
        <time>2022-01-07T09:03:16.000Z</time>
      </trkpt>
      <trkpt lat="41.72362234443426" lon="0.5764969065785408">
        <ele>374.20001220703125</ele>
        <time>2022-01-07T09:03:21.000Z</time>
      </trkpt>
      <trkpt lat="41.72364187426865" lon="0.5765215493738651">
        <ele>374.3999938964844</ele>
        <time>2022-01-07T09:03:22.000Z</time>
      </trkpt>
      <trkpt lat="41.72376894392073" lon="0.5766541510820389">
        <ele>374.6000061035156</ele>
        <time>2022-01-07T09:03:28.000Z</time>
      </trkpt>
      <trkpt lat="41.723893750458956" lon="0.5767581705003977">
        <ele>374.6000061035156</ele>
        <time>2022-01-07T09:03:33.000Z</time>
      </trkpt>
      <trkpt lat="41.72403238713741" lon="0.5768973100930452">
        <ele>374.3999938964844</ele>
        <time>2022-01-07T09:03:39.000Z</time>
      </trkpt>
      <trkpt lat="41.72407756559551" lon="0.5769390519708395">
        <ele>374.3999938964844</ele>
        <time>2022-01-07T09:03:41.000Z</time>
      </trkpt>
      <trkpt lat="41.72416364774108" lon="0.5769711546599865">
        <ele>374.79998779296875</ele>
        <time>2022-01-07T09:03:45.000Z</time>
      </trkpt>
      <trkpt lat="41.72421025112271" lon="0.5769477691501379">
        <ele>374.3999938964844</ele>
        <time>2022-01-07T09:03:47.000Z</time>
      </trkpt>
      <trkpt lat="41.724269427359104" lon="0.5768315959721804">
        <ele>374</ele>
        <time>2022-01-07T09:03:51.000Z</time>
      </trkpt>
      <trkpt lat="41.72427982091904" lon="0.5767979007214308">
        <ele>374</ele>
        <time>2022-01-07T09:03:52.000Z</time>
      </trkpt>
      <trkpt lat="41.72436389140785" lon="0.5765714216977358">
        <ele>374.3999938964844</ele>
        <time>2022-01-07T09:03:59.000Z</time>
      </trkpt>
      <trkpt lat="41.72445458360016" lon="0.5763500556349754">
        <ele>373.79998779296875</ele>
        <time>2022-01-07T09:04:06.000Z</time>
      </trkpt>
      <trkpt lat="41.72446548007429" lon="0.5763161927461624">
        <ele>373.79998779296875</ele>
        <time>2022-01-07T09:04:07.000Z</time>
      </trkpt>
      <trkpt lat="41.72451728023589" lon="0.5761237442493439">
        <ele>373.6000061035156</ele>
        <time>2022-01-07T09:04:13.000Z</time>
      </trkpt>
      <trkpt lat="41.72453764826059" lon="0.5760590359568596">
        <ele>373.6000061035156</ele>
        <time>2022-01-07T09:04:15.000Z</time>
      </trkpt>
      <trkpt lat="41.72458768822253" lon="0.5759430304169655">
        <ele>373.79998779296875</ele>
        <time>2022-01-07T09:04:19.000Z</time>
      </trkpt>
      <trkpt lat="41.72462062910199" lon="0.5758520867675543">
        <ele>374</ele>
        <time>2022-01-07T09:04:22.000Z</time>
      </trkpt>
      <trkpt lat="41.724710231646895" lon="0.5756465625017881">
        <ele>375</ele>
        <time>2022-01-07T09:04:29.000Z</time>
      </trkpt>
      <trkpt lat="41.724729258567095" lon="0.5756187345832586">
        <ele>375.20001220703125</ele>
        <time>2022-01-07T09:04:30.000Z</time>
      </trkpt>
      <trkpt lat="41.72485708259046" lon="0.5754380207508802">
        <ele>375</ele>
        <time>2022-01-07T09:04:37.000Z</time>
      </trkpt>
      <trkpt lat="41.724872924387455" lon="0.5754101928323507">
        <ele>375</ele>
        <time>2022-01-07T09:04:38.000Z</time>
      </trkpt>
      <trkpt lat="41.72500376589596" lon="0.5752210970968008">
        <ele>375.3999938964844</ele>
        <time>2022-01-07T09:04:45.000Z</time>
      </trkpt>
      <trkpt lat="41.72502497211099" lon="0.5751951970160007">
        <ele>375.3999938964844</ele>
        <time>2022-01-07T09:04:46.000Z</time>
      </trkpt>
      <trkpt lat="41.725086998194456" lon="0.5751286447048187">
        <ele>375.20001220703125</ele>
        <time>2022-01-07T09:04:49.000Z</time>
      </trkpt>
      <trkpt lat="41.725204680114985" lon="0.5750252958387136">
        <ele>375.3999938964844</ele>
        <time>2022-01-07T09:04:54.000Z</time>
      </trkpt>
      <trkpt lat="41.72535161487758" lon="0.5748512037098408">
        <ele>375.6000061035156</ele>
        <time>2022-01-07T09:05:01.000Z</time>
      </trkpt>
      <trkpt lat="41.72536997124553" lon="0.5748247168958187">
        <ele>375.6000061035156</ele>
        <time>2022-01-07T09:05:02.000Z</time>
      </trkpt>
      <trkpt lat="41.72549125738442" lon="0.5746673047542572">
        <ele>375.3999938964844</ele>
        <time>2022-01-07T09:05:08.000Z</time>
      </trkpt>
      <trkpt lat="41.72554364427924" lon="0.5745853297412395">
        <ele>375.20001220703125</ele>
        <time>2022-01-07T09:05:11.000Z</time>
      </trkpt>
      <trkpt lat="41.72567347995937" lon="0.5744524765759706">
        <ele>375</ele>
        <time>2022-01-07T09:05:17.000Z</time>
      </trkpt>
      <trkpt lat="41.725838519632816" lon="0.5743226408958435">
        <ele>375</ele>
        <time>2022-01-07T09:05:24.000Z</time>
      </trkpt>
      <trkpt lat="41.725889733061194" lon="0.5742947291582823">
        <ele>375</ele>
        <time>2022-01-07T09:05:26.000Z</time>
      </trkpt>
      <trkpt lat="41.72601948492229" lon="0.5742733553051949">
        <ele>374</ele>
        <time>2022-01-07T09:05:31.000Z</time>
      </trkpt>
      <trkpt lat="41.72604622319341" lon="0.5742689128965139">
        <ele>373.79998779296875</ele>
        <time>2022-01-07T09:05:32.000Z</time>
      </trkpt>
      <trkpt lat="41.726142363622785" lon="0.5742783844470978">
        <ele>372.79998779296875</ele>
        <time>2022-01-07T09:05:35.000Z</time>
      </trkpt>
      <trkpt lat="41.726203467696905" lon="0.5742778815329075">
        <ele>371.6000061035156</ele>
        <time>2022-01-07T09:05:37.000Z</time>
      </trkpt>
      <trkpt lat="41.726268427446485" lon="0.5743571743369102">
        <ele>371</ele>
        <time>2022-01-07T09:05:41.000Z</time>
      </trkpt>
      <trkpt lat="41.7262779828161" lon="0.5744167696684599">
        <ele>371.20001220703125</ele>
        <time>2022-01-07T09:05:43.000Z</time>
      </trkpt>
      <trkpt lat="41.72627211548388" lon="0.5744763650000095">
        <ele>372</ele>
        <time>2022-01-07T09:05:45.000Z</time>
      </trkpt>
      <trkpt lat="41.7262470535934" lon="0.5746643710881472">
        <ele>372.79998779296875</ele>
        <time>2022-01-07T09:05:51.000Z</time>
      </trkpt>
      <trkpt lat="41.72624722123146" lon="0.5746978987008333">
        <ele>372.79998779296875</ele>
        <time>2022-01-07T09:05:52.000Z</time>
      </trkpt>
      <trkpt lat="41.726268427446485" lon="0.574827566742897">
        <ele>373</ele>
        <time>2022-01-07T09:05:56.000Z</time>
      </trkpt>
      <trkpt lat="41.7263020388782" lon="0.5748852342367172">
        <ele>373.20001220703125</ele>
        <time>2022-01-07T09:05:58.000Z</time>
      </trkpt>
      <trkpt lat="41.7264317907393" lon="0.5749291554093361">
        <ele>372.79998779296875</ele>
        <time>2022-01-07T09:06:03.000Z</time>
      </trkpt>
      <trkpt lat="41.72662532888353" lon="0.5749563965946436">
        <ele>373.79998779296875</ele>
        <time>2022-01-07T09:06:10.000Z</time>
      </trkpt>
      <trkpt lat="41.72666640020907" lon="0.5749712325632572">
        <ele>374.3999938964844</ele>
        <time>2022-01-07T09:06:12.000Z</time>
      </trkpt>
      <trkpt lat="41.72671275213361" lon="0.5749908462166786">
        <ele>374.79998779296875</ele>
        <time>2022-01-07T09:06:14.000Z</time>
      </trkpt>
      <trkpt lat="41.72683169133961" lon="0.5750587396323681">
        <ele>374.79998779296875</ele>
        <time>2022-01-07T09:06:19.000Z</time>
      </trkpt>
      <trkpt lat="41.72694995999336" lon="0.5751320812851191">
        <ele>374.6000061035156</ele>
        <time>2022-01-07T09:06:24.000Z</time>
      </trkpt>
      <trkpt lat="41.72702858224511" lon="0.5751595739275217">
        <ele>374.6000061035156</ele>
        <time>2022-01-07T09:06:27.000Z</time>
      </trkpt>
      <trkpt lat="41.72721549868584" lon="0.5751542095094919">
        <ele>374.6000061035156</ele>
        <time>2022-01-07T09:06:34.000Z</time>
      </trkpt>
      <trkpt lat="41.7274334281683" lon="0.5750965420156717">
        <ele>375.3999938964844</ele>
        <time>2022-01-07T09:06:42.000Z</time>
      </trkpt>
      <trkpt lat="41.72745999880135" lon="0.5750920996069908">
        <ele>375.3999938964844</ele>
        <time>2022-01-07T09:06:43.000Z</time>
      </trkpt>
      <trkpt lat="41.727617578580976" lon="0.5751071870326996">
        <ele>375.3999938964844</ele>
        <time>2022-01-07T09:06:50.000Z</time>
      </trkpt>
      <trkpt lat="41.72767214477062" lon="0.5751313269138336">
        <ele>375.3999938964844</ele>
        <time>2022-01-07T09:06:52.000Z</time>
      </trkpt>
      <trkpt lat="41.7277146410197" lon="0.5751572269946337">
        <ele>375.79998779296875</ele>
        <time>2022-01-07T09:06:54.000Z</time>
      </trkpt>
      <trkpt lat="41.72781287692487" lon="0.5751920118927956">
        <ele>376.20001220703125</ele>
        <time>2022-01-07T09:06:58.000Z</time>
      </trkpt>
      <trkpt lat="41.727947322651744" lon="0.5752380285412073">
        <ele>375.79998779296875</ele>
        <time>2022-01-07T09:07:03.000Z</time>
      </trkpt>
      <trkpt lat="41.728026531636715" lon="0.5752314906567335">
        <ele>375.79998779296875</ele>
        <time>2022-01-07T09:07:06.000Z</time>
      </trkpt>
      <trkpt lat="41.728104231879115" lon="0.5752257071435452">
        <ele>376</ele>
        <time>2022-01-07T09:07:09.000Z</time>
      </trkpt>
      <trkpt lat="41.72821378335357" lon="0.5752347595989704">
        <ele>375.6000061035156</ele>
        <time>2022-01-07T09:07:13.000Z</time>
      </trkpt>
      <trkpt lat="41.728418888524175" lon="0.5751948617398739">
        <ele>375.20001220703125</ele>
        <time>2022-01-07T09:07:20.000Z</time>
      </trkpt>
      <trkpt lat="41.72861116938293" lon="0.5751877371221781">
        <ele>374.79998779296875</ele>
        <time>2022-01-07T09:07:27.000Z</time>
      </trkpt>
      <trkpt lat="41.72873882576823" lon="0.5752535350620747">
        <ele>373.6000061035156</ele>
        <time>2022-01-07T09:07:32.000Z</time>
      </trkpt>
      <trkpt lat="41.72876615077257" lon="0.5752791836857796">
        <ele>373.20001220703125</ele>
        <time>2022-01-07T09:07:33.000Z</time>
      </trkpt>
      <trkpt lat="41.72879012301564" lon="0.5753058381378651">
        <ele>372.3999938964844</ele>
        <time>2022-01-07T09:07:34.000Z</time>
      </trkpt>
      <trkpt lat="41.72881250269711" lon="0.5753876455128193">
        <ele>371.3999938964844</ele>
        <time>2022-01-07T09:07:37.000Z</time>
      </trkpt>
      <trkpt lat="41.728828" lon="0.57545">
        <ele>362.406</ele>
        <time>1998-12-06T19:19:09Z</time>
      </trkpt>
      <trkpt lat="41.728869" lon="0.575495">
        <ele>363.426</ele>
        <time>1998-12-06T19:19:13Z</time>
      </trkpt>
      <trkpt lat="41.728939" lon="0.575547">
        <ele>364.408</ele>
        <time>1998-12-06T19:19:19Z</time>
      </trkpt>
      <trkpt lat="41.728949" lon="0.575555">
        <ele>364.611</ele>
        <time>1998-12-06T19:19:20Z</time>
      </trkpt>
      <trkpt lat="41.729" lon="0.575617">
        <ele>365.659</ele>
        <time>1998-12-06T19:19:25Z</time>
      </trkpt>
      <trkpt lat="41.729049" lon="0.575667">
        <ele>366.659</ele>
        <time>1998-12-06T19:19:30Z</time>
      </trkpt>
      <trkpt lat="41.729071" lon="0.575694">
        <ele>367.218</ele>
        <time>1998-12-06T19:19:33Z</time>
      </trkpt>
      <trkpt lat="41.729087" lon="0.575734">
        <ele>367.888</ele>
        <time>1998-12-06T19:19:36Z</time>
      </trkpt>
      <trkpt lat="41.728964" lon="0.575865">
        <ele>368.26</ele>
        <time>1998-12-06T19:19:44Z</time>
      </trkpt>
      <trkpt lat="41.728763" lon="0.57584">
        <ele>368.09</ele>
        <time>1998-12-06T19:19:51Z</time>
      </trkpt>
      <trkpt lat="41.728602" lon="0.575946">
        <ele>368.286</ele>
        <time>1998-12-06T19:19:57Z</time>
      </trkpt>
      <trkpt lat="41.728467" lon="0.576106">
        <ele>368.074</ele>
        <time>1998-12-06T19:20:03Z</time>
      </trkpt>
      <trkpt lat="41.728319" lon="0.57627">
        <ele>368.056</ele>
        <time>1998-12-06T19:20:10Z</time>
      </trkpt>
      <trkpt lat="41.728171" lon="0.576462">
        <ele>368.421</ele>
        <time>1998-12-06T19:20:17Z</time>
      </trkpt>
      <trkpt lat="41.728051" lon="0.576645">
        <ele>368.208</ele>
        <time>1998-12-06T19:20:23Z</time>
      </trkpt>
      <trkpt lat="41.727996" lon="0.576739">
        <ele>368.46</ele>
        <time>1998-12-06T19:20:27Z</time>
      </trkpt>
      <trkpt lat="41.727814" lon="0.576847">
        <ele>367.648</ele>
        <time>1998-12-06T19:20:36Z</time>
      </trkpt>
      <trkpt lat="41.727676" lon="0.57702">
        <ele>367.238</ele>
        <time>1998-12-06T19:20:44Z</time>
      </trkpt>
      <trkpt lat="41.727511" lon="0.577153">
        <ele>366.867</ele>
        <time>1998-12-06T19:20:52Z</time>
      </trkpt>
      <trkpt lat="41.727467" lon="0.577186">
        <ele>366.827</ele>
        <time>1998-12-06T19:20:54Z</time>
      </trkpt>
      <trkpt lat="41.727287" lon="0.577291">
        <ele>366.859</ele>
        <time>1998-12-06T19:21:02Z</time>
      </trkpt>
      <trkpt lat="41.72713" lon="0.577402">
        <ele>367.299</ele>
        <time>1998-12-06T19:21:10Z</time>
      </trkpt>
      <trkpt lat="41.72713" lon="0.577525">
        <ele>367.845</ele>
        <time>1998-12-06T19:21:14Z</time>
      </trkpt>
      <trkpt lat="41.72714" lon="0.577772">
        <ele>367.217</ele>
        <time>1998-12-06T19:21:21Z</time>
      </trkpt>
      <trkpt lat="41.727163" lon="0.577878">
        <ele>366.887</ele>
        <time>1998-12-06T19:21:24Z</time>
      </trkpt>
      <trkpt lat="41.727045" lon="0.578068">
        <ele>366.815</ele>
        <time>1998-12-06T19:21:32Z</time>
      </trkpt>
      <trkpt lat="41.726869" lon="0.578155">
        <ele>366.208</ele>
        <time>1998-12-06T19:21:39Z</time>
      </trkpt>
      <trkpt lat="41.726713" lon="0.578262">
        <ele>366.844</ele>
        <time>1998-12-06T19:21:49Z</time>
      </trkpt>
      <trkpt lat="41.72669" lon="0.578252">
        <ele>367.012</ele>
        <time>1998-12-06T19:21:51Z</time>
      </trkpt>
      <trkpt lat="41.726663" lon="0.578268">
        <ele>366.872</ele>
        <time>1998-12-06T19:21:53Z</time>
      </trkpt>
      <trkpt lat="41.72661" lon="0.578371">
        <ele>366.451</ele>
        <time>1998-12-06T19:22:01Z</time>
      </trkpt>
      <trkpt lat="41.726495" lon="0.57856">
        <ele>367.051</ele>
        <time>1998-12-06T19:22:08Z</time>
      </trkpt>
      <trkpt lat="41.72634" lon="0.578705">
        <ele>366.693</ele>
        <time>1998-12-06T19:22:15Z</time>
      </trkpt>
      <trkpt lat="41.726191" lon="0.578862">
        <ele>367.073</ele>
        <time>1998-12-06T19:22:22Z</time>
      </trkpt>
      <trkpt lat="41.726095" lon="0.578954">
        <ele>367.039</ele>
        <time>1998-12-06T19:22:26Z</time>
      </trkpt>
      <trkpt lat="41.725934" lon="0.579101">
        <ele>366.829</ele>
        <time>1998-12-06T19:22:33Z</time>
      </trkpt>
      <trkpt lat="41.725822" lon="0.579291">
        <ele>367.2</ele>
        <time>1998-12-06T19:22:40Z</time>
      </trkpt>
      <trkpt lat="41.725734" lon="0.579543">
        <ele>366.82</ele>
        <time>1998-12-06T19:22:47Z</time>
      </trkpt>
      <trkpt lat="41.725683" lon="0.57966">
        <ele>366.208</ele>
        <time>1998-12-06T19:22:53Z</time>
      </trkpt>
      <trkpt lat="41.725725" lon="0.579635">
        <ele>366.045</ele>
        <time>1998-12-06T19:22:55Z</time>
      </trkpt>
      <trkpt lat="41.72575" lon="0.579607">
        <ele>365.883</ele>
        <time>1998-12-06T19:22:56Z</time>
      </trkpt>
      <trkpt lat="41.725851" lon="0.579512">
        <ele>364.633</ele>
        <time>1998-12-06T19:23:00Z</time>
      </trkpt>
      <trkpt lat="41.726002" lon="0.579371">
        <ele>363.832</ele>
        <time>1998-12-06T19:23:06Z</time>
      </trkpt>
      <trkpt lat="41.72605" lon="0.579326">
        <ele>363.682</ele>
        <time>1998-12-06T19:23:08Z</time>
      </trkpt>
      <trkpt lat="41.726096" lon="0.579284">
        <ele>363.434</ele>
        <time>1998-12-06T19:23:10Z</time>
      </trkpt>
      <trkpt lat="41.726266" lon="0.579165">
        <ele>363.054</ele>
        <time>1998-12-06T19:23:17Z</time>
      </trkpt>
      <trkpt lat="41.726458" lon="0.579088">
        <ele>362.65</ele>
        <time>1998-12-06T19:23:24Z</time>
      </trkpt>
      <trkpt lat="41.726617" lon="0.579051">
        <ele>362.492</ele>
        <time>1998-12-06T19:23:30Z</time>
      </trkpt>
      <trkpt lat="41.726824" lon="0.579066">
        <ele>362.273</ele>
        <time>1998-12-06T19:23:37Z</time>
      </trkpt>
      <trkpt lat="41.72701" lon="0.579149">
        <ele>362.82</ele>
        <time>1998-12-06T19:23:45Z</time>
      </trkpt>
      <trkpt lat="41.727113" lon="0.579224">
        <ele>363.408</ele>
        <time>1998-12-06T19:23:50Z</time>
      </trkpt>
      <trkpt lat="41.727297" lon="0.579309">
        <ele>364.082</ele>
        <time>1998-12-06T19:23:57Z</time>
      </trkpt>
      <trkpt lat="41.727426" lon="0.579327">
        <ele>364.67</ele>
        <time>1998-12-06T19:24:02Z</time>
      </trkpt>
      <trkpt lat="41.727582" lon="0.579286">
        <ele>365.44</ele>
        <time>1998-12-06T19:24:08Z</time>
      </trkpt>
      <trkpt lat="41.727639" lon="0.57924">
        <ele>365.679</ele>
        <time>1998-12-06T19:24:11Z</time>
      </trkpt>
      <trkpt lat="41.727831" lon="0.579138">
        <ele>366.039</ele>
        <time>1998-12-06T19:24:20Z</time>
      </trkpt>
      <trkpt lat="41.728021" lon="0.579083">
        <ele>366.291</ele>
        <time>1998-12-06T19:24:27Z</time>
      </trkpt>
      <trkpt lat="41.728225" lon="0.579061">
        <ele>366.031</ele>
        <time>1998-12-06T19:24:34Z</time>
      </trkpt>
      <trkpt lat="41.728409" lon="0.578983">
        <ele>364.897</ele>
        <time>1998-12-06T19:24:41Z</time>
      </trkpt>
      <trkpt lat="41.728465" lon="0.578957">
        <ele>364.628</ele>
        <time>1998-12-06T19:24:43Z</time>
      </trkpt>
      <trkpt lat="41.728646" lon="0.578853">
        <ele>363.689</ele>
        <time>1998-12-06T19:24:50Z</time>
      </trkpt>
      <trkpt lat="41.728827" lon="0.578749">
        <ele>363.217</ele>
        <time>1998-12-06T19:24:57Z</time>
      </trkpt>
      <trkpt lat="41.729002" lon="0.578679">
        <ele>362.808</ele>
        <time>1998-12-06T19:25:04Z</time>
      </trkpt>
      <trkpt lat="41.729128" lon="0.578701">
        <ele>362.685</ele>
        <time>1998-12-06T19:25:09Z</time>
      </trkpt>
      <trkpt lat="41.729334" lon="0.57871">
        <ele>362.043</ele>
        <time>1998-12-06T19:25:16Z</time>
      </trkpt>
      <trkpt lat="41.729515" lon="0.578719">
        <ele>361.693</ele>
        <time>1998-12-06T19:25:22Z</time>
      </trkpt>
      <trkpt lat="41.729545" lon="0.578724">
        <ele>361.432</ele>
        <time>1998-12-06T19:25:23Z</time>
      </trkpt>
      <trkpt lat="41.729739" lon="0.57874">
        <ele>361.212</ele>
        <time>1998-12-06T19:25:30Z</time>
      </trkpt>
      <trkpt lat="41.729926" lon="0.578786">
        <ele>361.614</ele>
        <time>1998-12-06T19:25:37Z</time>
      </trkpt>
      <trkpt lat="41.73004" lon="0.578844">
        <ele>362.464</ele>
        <time>1998-12-06T19:25:42Z</time>
      </trkpt>
      <trkpt lat="41.730139" lon="0.578872">
        <ele>363.66</ele>
        <time>1998-12-06T19:25:47Z</time>
      </trkpt>
      <trkpt lat="41.730282" lon="0.579081">
        <ele>364.692</ele>
        <time>1998-12-06T19:25:54Z</time>
      </trkpt>
      <trkpt lat="41.73042" lon="0.579244">
        <ele>365.073</ele>
        <time>1998-12-06T19:26:01Z</time>
      </trkpt>
      <trkpt lat="41.730478" lon="0.579288">
        <ele>366.02</ele>
        <time>1998-12-06T19:26:04Z</time>
      </trkpt>
      <trkpt lat="41.730519" lon="0.579316">
        <ele>366.608</ele>
        <time>1998-12-06T19:26:06Z</time>
      </trkpt>
      <trkpt lat="41.730541" lon="0.57932">
        <ele>367.262</ele>
        <time>1998-12-06T19:26:07Z</time>
      </trkpt>
      <trkpt lat="41.730622" lon="0.579293">
        <ele>368.28</ele>
        <time>1998-12-06T19:26:11Z</time>
      </trkpt>
      <trkpt lat="41.730668" lon="0.579085">
        <ele>367.05</ele>
        <time>1998-12-06T19:26:19Z</time>
      </trkpt>
      <trkpt lat="41.730671" lon="0.579024">
        <ele>366.039</ele>
        <time>1998-12-06T19:26:21Z</time>
      </trkpt>
      <trkpt lat="41.730676" lon="0.579002">
        <ele>365.419</ele>
        <time>1998-12-06T19:26:22Z</time>
      </trkpt>
      <trkpt lat="41.730694" lon="0.57899">
        <ele>364.661</ele>
        <time>1998-12-06T19:26:24Z</time>
      </trkpt>
      <trkpt lat="41.730734" lon="0.57899">
        <ele>363.661</ele>
        <time>1998-12-06T19:26:27Z</time>
      </trkpt>
      <trkpt lat="41.730759" lon="0.579009">
        <ele>362.287</ele>
        <time>1998-12-06T19:26:29Z</time>
      </trkpt>
      <trkpt lat="41.730789" lon="0.579022">
        <ele>361.243</ele>
        <time>1998-12-06T19:26:32Z</time>
      </trkpt>
      <trkpt lat="41.73081" lon="0.579007">
        <ele>360.264</ele>
        <time>1998-12-06T19:26:34Z</time>
      </trkpt>
      <trkpt lat="41.730818" lon="0.578992">
        <ele>359.41</ele>
        <time>1998-12-06T19:26:35Z</time>
      </trkpt>
      <trkpt lat="41.73082" lon="0.578976">
        <ele>358.808</ele>
        <time>1998-12-06T19:26:36Z</time>
      </trkpt>
      <trkpt lat="41.730811" lon="0.578954">
        <ele>358.657</ele>
        <time>1998-12-06T19:26:37Z</time>
      </trkpt>
      <trkpt lat="41.730807" lon="0.578909">
        <ele>357.825</ele>
        <time>1998-12-06T19:26:39Z</time>
      </trkpt>
      <trkpt lat="41.73083" lon="0.578881">
        <ele>356.685</ele>
        <time>1998-12-06T19:26:41Z</time>
      </trkpt>
      <trkpt lat="41.730839" lon="0.578868">
        <ele>356.244</ele>
        <time>1998-12-06T19:26:42Z</time>
      </trkpt>
      <trkpt lat="41.730854" lon="0.578826">
        <ele>355.634</ele>
        <time>1998-12-06T19:26:44Z</time>
      </trkpt>
      <trkpt lat="41.73088" lon="0.578771">
        <ele>355.496</ele>
        <time>1998-12-06T19:26:47Z</time>
      </trkpt>
      <trkpt lat="41.730947" lon="0.578553">
        <ele>354.876</ele>
        <time>1998-12-06T19:26:54Z</time>
      </trkpt>
      <trkpt lat="41.730965" lon="0.578525">
        <ele>354.262</ele>
        <time>1998-12-06T19:26:55Z</time>
      </trkpt>
      <trkpt lat="41.731011" lon="0.578467">
        <ele>353.213</ele>
        <time>1998-12-06T19:26:58Z</time>
      </trkpt>
      <trkpt lat="41.731052" lon="0.578442">
        <ele>353.243</ele>
        <time>1998-12-06T19:27:00Z</time>
      </trkpt>
      <trkpt lat="41.73115" lon="0.578306">
        <ele>352.007</ele>
        <time>1998-12-06T19:27:05Z</time>
      </trkpt>
      <trkpt lat="41.73121" lon="0.578223">
        <ele>350.808</ele>
        <time>1998-12-06T19:27:08Z</time>
      </trkpt>
      <trkpt lat="41.731365" lon="0.57808">
        <ele>349.624</ele>
        <time>1998-12-06T19:27:16Z</time>
      </trkpt>
      <trkpt lat="41.731425" lon="0.578109">
        <ele>348.682</ele>
        <time>1998-12-06T19:27:19Z</time>
      </trkpt>
      <trkpt lat="41.731442" lon="0.578124">
        <ele>348.272</ele>
        <time>1998-12-06T19:27:20Z</time>
      </trkpt>
      <trkpt lat="41.731459" lon="0.578175">
        <ele>347.631</ele>
        <time>1998-12-06T19:27:22Z</time>
      </trkpt>
      <trkpt lat="41.731481" lon="0.578306">
        <ele>345.871</ele>
        <time>1998-12-06T19:27:26Z</time>
      </trkpt>
      <trkpt lat="41.731502" lon="0.578384">
        <ele>344.463</ele>
        <time>1998-12-06T19:27:28Z</time>
      </trkpt>
      <trkpt lat="41.731521" lon="0.578459">
        <ele>343.493</ele>
        <time>1998-12-06T19:27:30Z</time>
      </trkpt>
      <trkpt lat="41.731547" lon="0.578484">
        <ele>342.649</ele>
        <time>1998-12-06T19:27:31Z</time>
      </trkpt>
      <trkpt lat="41.731576" lon="0.578493">
        <ele>342.275</ele>
        <time>1998-12-06T19:27:32Z</time>
      </trkpt>
      <trkpt lat="41.731702" lon="0.578433">
        <ele>341.028</ele>
        <time>1998-12-06T19:27:37Z</time>
      </trkpt>
      <trkpt lat="41.731796" lon="0.578335">
        <ele>340.02</ele>
        <time>1998-12-06T19:27:42Z</time>
      </trkpt>
      <trkpt lat="41.731809" lon="0.578329">
        <ele>339.008</ele>
        <time>1998-12-06T19:27:44Z</time>
      </trkpt>
      <trkpt lat="41.73181" lon="0.578328">
        <ele>338.64</ele>
        <time>1998-12-06T19:27:45Z</time>
      </trkpt>
      <trkpt lat="41.73181" lon="0.57833">
        <ele>337.618</ele>
        <time>1998-12-06T19:27:50Z</time>
      </trkpt>
      <trkpt lat="41.731835" lon="0.578264">
        <ele>337.218</ele>
        <time>1998-12-06T19:27:58Z</time>
      </trkpt>
      <trkpt lat="41.731865" lon="0.57817">
        <ele>336.857</ele>
        <time>1998-12-06T19:28:01Z</time>
      </trkpt>
      <trkpt lat="41.731885" lon="0.578147">
        <ele>336.667</ele>
        <time>1998-12-06T19:28:02Z</time>
      </trkpt>
      <trkpt lat="41.732022" lon="0.578015">
        <ele>335.459</ele>
        <time>1998-12-06T19:28:08Z</time>
      </trkpt>
      <trkpt lat="41.732149" lon="0.578017">
        <ele>334.419</ele>
        <time>1998-12-06T19:28:12Z</time>
      </trkpt>
      <trkpt lat="41.732199" lon="0.578203">
        <ele>334.465</ele>
        <time>1998-12-06T19:28:18Z</time>
      </trkpt>
      <trkpt lat="41.732197" lon="0.578298">
        <ele>333.227</ele>
        <time>1998-12-06T19:28:21Z</time>
      </trkpt>
      <trkpt lat="41.732202" lon="0.578316">
        <ele>332.468</ele>
        <time>1998-12-06T19:28:22Z</time>
      </trkpt>
      <trkpt lat="41.732212" lon="0.578321">
        <ele>331.614</ele>
        <time>1998-12-06T19:28:23Z</time>
      </trkpt>
      <trkpt lat="41.732226" lon="0.578328">
        <ele>331.008</ele>
        <time>1998-12-06T19:28:24Z</time>
      </trkpt>
      <trkpt lat="41.732253" lon="0.578344">
        <ele>330.255</ele>
        <time>1998-12-06T19:28:26Z</time>
      </trkpt>
      <trkpt lat="41.732299" lon="0.578364">
        <ele>328.853</ele>
        <time>1998-12-06T19:28:29Z</time>
      </trkpt>
      <trkpt lat="41.73234" lon="0.578379">
        <ele>327.673</ele>
        <time>1998-12-06T19:28:31Z</time>
      </trkpt>
      <trkpt lat="41.732395" lon="0.578395">
        <ele>326.432</ele>
        <time>1998-12-06T19:28:33Z</time>
      </trkpt>
      <trkpt lat="41.732429" lon="0.578429">
        <ele>325.812</ele>
        <time>1998-12-06T19:28:35Z</time>
      </trkpt>
      <trkpt lat="41.73242" lon="0.578557">
        <ele>325.424</ele>
        <time>1998-12-06T19:28:39Z</time>
      </trkpt>
      <trkpt lat="41.732399" lon="0.578583">
        <ele>325.214</ele>
        <time>1998-12-06T19:28:40Z</time>
      </trkpt>
      <trkpt lat="41.732383" lon="0.578617">
        <ele>325.02</ele>
        <time>1998-12-06T19:28:41Z</time>
      </trkpt>
      <trkpt lat="41.732439" lon="0.578746">
        <ele>324.484</ele>
        <time>1998-12-06T19:28:52Z</time>
      </trkpt>
      <trkpt lat="41.732588" lon="0.57856">
        <ele>325.007</ele>
        <time>1998-12-06T19:29:00Z</time>
      </trkpt>
      <trkpt lat="41.73264" lon="0.578485">
        <ele>325.817</ele>
        <time>1998-12-06T19:29:03Z</time>
      </trkpt>
      <trkpt lat="41.732683" lon="0.578522">
        <ele>326.208</ele>
        <time>1998-12-06T19:29:05Z</time>
      </trkpt>
      <trkpt lat="41.732818" lon="0.578711">
        <ele>325.631</ele>
        <time>1998-12-06T19:29:11Z</time>
      </trkpt>
      <trkpt lat="41.73284" lon="0.578745">
        <ele>325.089</ele>
        <time>1998-12-06T19:29:12Z</time>
      </trkpt>
      <trkpt lat="41.732883" lon="0.578784">
        <ele>323.459</ele>
        <time>1998-12-06T19:29:14Z</time>
      </trkpt>
      <trkpt lat="41.732936" lon="0.578809">
        <ele>322.258</ele>
        <time>1998-12-06T19:29:16Z</time>
      </trkpt>
      <trkpt lat="41.733022" lon="0.578858">
        <ele>321.228</ele>
        <time>1998-12-06T19:29:19Z</time>
      </trkpt>
      <trkpt lat="41.733108" lon="0.578971">
        <ele>320.69</ele>
        <time>1998-12-06T19:29:23Z</time>
      </trkpt>
      <trkpt lat="41.733224" lon="0.579156">
        <ele>320.28</ele>
        <time>1998-12-06T19:29:29Z</time>
      </trkpt>
      <trkpt lat="41.733298" lon="0.579278">
        <ele>320.026</ele>
        <time>1998-12-06T19:29:33Z</time>
      </trkpt>
      <trkpt lat="41.733467" lon="0.579419">
        <ele>320.042</ele>
        <time>1998-12-06T19:29:40Z</time>
      </trkpt>
      <trkpt lat="41.733628" lon="0.579554">
        <ele>319.622</ele>
        <time>1998-12-06T19:29:47Z</time>
      </trkpt>
      <trkpt lat="41.733805" lon="0.579562">
        <ele>320.014</ele>
        <time>1998-12-06T19:29:53Z</time>
      </trkpt>
      <trkpt lat="41.734004" lon="0.579547">
        <ele>320.408</ele>
        <time>1998-12-06T19:30:00Z</time>
      </trkpt>
      <trkpt lat="41.734135" lon="0.579494">
        <ele>321.267</ele>
        <time>1998-12-06T19:30:06Z</time>
      </trkpt>
      <trkpt lat="41.734342" lon="0.579458">
        <ele>321.615</ele>
        <time>1998-12-06T19:30:13Z</time>
      </trkpt>
      <trkpt lat="41.734525" lon="0.579452">
        <ele>321.055</ele>
        <time>1998-12-06T19:30:19Z</time>
      </trkpt>
      <trkpt lat="41.73462" lon="0.579322">
        <ele>320.294</ele>
        <time>1998-12-06T19:30:24Z</time>
      </trkpt>
      <trkpt lat="41.73467" lon="0.579275">
        <ele>320.214</ele>
        <time>1998-12-06T19:30:26Z</time>
      </trkpt>
      <trkpt lat="41.734806" lon="0.579174">
        <ele>320.026</ele>
        <time>1998-12-06T19:30:32Z</time>
      </trkpt>
      <trkpt lat="41.735001" lon="0.579207">
        <ele>320.076</ele>
        <time>1998-12-06T19:30:40Z</time>
      </trkpt>
      <trkpt lat="41.735029" lon="0.579466">
        <ele>320.232</ele>
        <time>1998-12-06T19:30:47Z</time>
      </trkpt>
      <trkpt lat="41.734975" lon="0.579703">
        <ele>319.869</ele>
        <time>1998-12-06T19:30:54Z</time>
      </trkpt>
      <trkpt lat="41.735092" lon="0.579897">
        <ele>320.004</ele>
        <time>1998-12-06T19:31:01Z</time>
      </trkpt>
      <trkpt lat="41.735234" lon="0.580083">
        <ele>320.024</ele>
        <time>1998-12-06T19:31:08Z</time>
      </trkpt>
      <trkpt lat="41.735331" lon="0.5803">
        <ele>320.608</ele>
        <time>1998-12-06T19:31:14Z</time>
      </trkpt>
      <trkpt lat="41.735295" lon="0.580532">
        <ele>321.479</ele>
        <time>1998-12-06T19:31:20Z</time>
      </trkpt>
      <trkpt lat="41.735316" lon="0.580638">
        <ele>321.867</ele>
        <time>1998-12-06T19:31:24Z</time>
      </trkpt>
      <trkpt lat="41.735469" lon="0.580773">
        <ele>322.077</ele>
        <time>1998-12-06T19:31:35Z</time>
      </trkpt>
      <trkpt lat="41.735644" lon="0.580811">
        <ele>321.226</ele>
        <time>1998-12-06T19:31:41Z</time>
      </trkpt>
      <trkpt lat="41.735795" lon="0.580682">
        <ele>322.416</ele>
        <time>1998-12-06T19:31:49Z</time>
      </trkpt>
      <trkpt lat="41.735938" lon="0.580506">
        <ele>322.898</ele>
        <time>1998-12-06T19:31:56Z</time>
      </trkpt>
      <trkpt lat="41.736075" lon="0.580524">
        <ele>323.468</ele>
        <time>1998-12-06T19:32:01Z</time>
      </trkpt>
      <trkpt lat="41.736255" lon="0.580591">
        <ele>323.644</ele>
        <time>1998-12-06T19:32:07Z</time>
      </trkpt>
      <trkpt lat="41.736337" lon="0.580601">
        <ele>323.464</ele>
        <time>1998-12-06T19:32:10Z</time>
      </trkpt>
      <trkpt lat="41.736404" lon="0.580678">
        <ele>323.206</ele>
        <time>1998-12-06T19:32:13Z</time>
      </trkpt>
      <trkpt lat="41.736466" lon="0.580921">
        <ele>323.016</ele>
        <time>1998-12-06T19:32:19Z</time>
      </trkpt>
      <trkpt lat="41.736468" lon="0.581165">
        <ele>322.808</ele>
        <time>1998-12-06T19:32:25Z</time>
      </trkpt>
      <trkpt lat="41.736501" lon="0.581404">
        <ele>323.249</ele>
        <time>1998-12-06T19:32:30Z</time>
      </trkpt>
      <trkpt lat="41.736598" lon="0.581649">
        <ele>323.057</ele>
        <time>1998-12-06T19:32:36Z</time>
      </trkpt>
      <trkpt lat="41.736706" lon="0.581843">
        <ele>322.697</ele>
        <time>1998-12-06T19:32:42Z</time>
      </trkpt>
      <trkpt lat="41.736831" lon="0.582016">
        <ele>322.836</ele>
        <time>1998-12-06T19:32:48Z</time>
      </trkpt>
      <trkpt lat="41.736837" lon="0.582016">
        <ele>323.286</ele>
        <time>1998-12-06T19:32:51Z</time>
      </trkpt>
      <trkpt lat="41.736831" lon="0.581942">
        <ele>324.478</ele>
        <time>1998-12-06T19:32:57Z</time>
      </trkpt>
      <trkpt lat="41.736833" lon="0.5819">
        <ele>325.868</ele>
        <time>1998-12-06T19:33:00Z</time>
      </trkpt>
      <trkpt lat="41.736832" lon="0.581877">
        <ele>327.094</ele>
        <time>1998-12-06T19:33:02Z</time>
      </trkpt>
      <trkpt lat="41.73683" lon="0.581863">
        <ele>327.621</ele>
        <time>1998-12-06T19:33:03Z</time>
      </trkpt>
      <trkpt lat="41.736829" lon="0.581853">
        <ele>328.041</ele>
        <time>1998-12-06T19:33:04Z</time>
      </trkpt>
      <trkpt lat="41.736827" lon="0.58182">
        <ele>329.005</ele>
        <time>1998-12-06T19:33:07Z</time>
      </trkpt>
      <trkpt lat="41.736827" lon="0.581813">
        <ele>329.408</ele>
        <time>1998-12-06T19:33:08Z</time>
      </trkpt>
      <trkpt lat="41.736847" lon="0.581793">
        <ele>330.855</ele>
        <time>1998-12-06T19:33:11Z</time>
      </trkpt>
      <trkpt lat="41.736868" lon="0.581786">
        <ele>331.463</ele>
        <time>1998-12-06T19:33:13Z</time>
      </trkpt>
      <trkpt lat="41.736886" lon="0.58178">
        <ele>332.213</ele>
        <time>1998-12-06T19:33:15Z</time>
      </trkpt>
      <trkpt lat="41.736896" lon="0.581775">
        <ele>332.672</ele>
        <time>1998-12-06T19:33:16Z</time>
      </trkpt>
      <trkpt lat="41.736917" lon="0.581765">
        <ele>333.442</ele>
        <time>1998-12-06T19:33:18Z</time>
      </trkpt>
      <trkpt lat="41.736928" lon="0.581755">
        <ele>333.674</ele>
        <time>1998-12-06T19:33:19Z</time>
      </trkpt>
      <trkpt lat="41.736944" lon="0.581729">
        <ele>334.014</ele>
        <time>1998-12-06T19:33:21Z</time>
      </trkpt>
      <trkpt lat="41.736949" lon="0.581724">
        <ele>334.41</ele>
        <time>1998-12-06T19:33:22Z</time>
      </trkpt>
      <trkpt lat="41.736969" lon="0.581712">
        <ele>335.613</ele>
        <time>1998-12-06T19:33:25Z</time>
      </trkpt>
      <trkpt lat="41.736982" lon="0.581697">
        <ele>337.043</ele>
        <time>1998-12-06T19:33:28Z</time>
      </trkpt>
      <trkpt lat="41.736981" lon="0.581678">
        <ele>338.407</ele>
        <time>1998-12-06T19:33:31Z</time>
      </trkpt>
      <trkpt lat="41.736979" lon="0.581669">
        <ele>339.608</ele>
        <time>1998-12-06T19:33:35Z</time>
      </trkpt>
      <trkpt lat="41.736953" lon="0.581649">
        <ele>340.834</ele>
        <time>1998-12-06T19:33:39Z</time>
      </trkpt>
      <trkpt lat="41.736927" lon="0.58164">
        <ele>341.812</ele>
        <time>1998-12-06T19:33:43Z</time>
      </trkpt>
      <trkpt lat="41.736909" lon="0.581627">
        <ele>343.072</ele>
        <time>1998-12-06T19:33:46Z</time>
      </trkpt>
      <trkpt lat="41.736902" lon="0.581604">
        <ele>344.271</ele>
        <time>1998-12-06T19:33:50Z</time>
      </trkpt>
      <trkpt lat="41.736903" lon="0.581584">
        <ele>345.471</ele>
        <time>1998-12-06T19:33:54Z</time>
      </trkpt>
      <trkpt lat="41.736897" lon="0.581577">
        <ele>346.433</ele>
        <time>1998-12-06T19:33:57Z</time>
      </trkpt>
      <trkpt lat="41.736891" lon="0.581565">
        <ele>347.883</ele>
        <time>1998-12-06T19:34:01Z</time>
      </trkpt>
      <trkpt lat="41.736875" lon="0.581515">
        <ele>348.859</ele>
        <time>1998-12-06T19:34:05Z</time>
      </trkpt>
      <trkpt lat="41.736877" lon="0.581472">
        <ele>350.218</ele>
        <time>1998-12-06T19:34:08Z</time>
      </trkpt>
      <trkpt lat="41.736882" lon="0.581452">
        <ele>351.098</ele>
        <time>1998-12-06T19:34:10Z</time>
      </trkpt>
      <trkpt lat="41.736883" lon="0.58144">
        <ele>351.217</ele>
        <time>1998-12-06T19:34:11Z</time>
      </trkpt>
      <trkpt lat="41.736886" lon="0.581429">
        <ele>351.608</ele>
        <time>1998-12-06T19:34:12Z</time>
      </trkpt>
      <trkpt lat="41.736892" lon="0.581407">
        <ele>352.444</ele>
        <time>1998-12-06T19:34:14Z</time>
      </trkpt>
      <trkpt lat="41.736901" lon="0.58138">
        <ele>353.492</ele>
        <time>1998-12-06T19:34:16Z</time>
      </trkpt>
      <trkpt lat="41.736903" lon="0.581378">
        <ele>353.822</ele>
        <time>1998-12-06T19:34:17Z</time>
      </trkpt>
      <trkpt lat="41.736908" lon="0.581375">
        <ele>354.211</ele>
        <time>1998-12-06T19:34:18Z</time>
      </trkpt>
      <trkpt lat="41.736918" lon="0.581369">
        <ele>354.821</ele>
        <time>1998-12-06T19:34:20Z</time>
      </trkpt>
      <trkpt lat="41.736927" lon="0.581352">
        <ele>356.253</ele>
        <time>1998-12-06T19:34:23Z</time>
      </trkpt>
      <trkpt lat="41.736933" lon="0.581274">
        <ele>357.273</ele>
        <time>1998-12-06T19:34:28Z</time>
      </trkpt>
      <trkpt lat="41.736949" lon="0.581206">
        <ele>358.459</ele>
        <time>1998-12-06T19:34:35Z</time>
      </trkpt>
      <trkpt lat="41.736953" lon="0.581198">
        <ele>358.659</ele>
        <time>1998-12-06T19:34:36Z</time>
      </trkpt>
      <trkpt lat="41.736973" lon="0.581174">
        <ele>359.803</ele>
        <time>1998-12-06T19:34:40Z</time>
      </trkpt>
      <trkpt lat="41.736994" lon="0.581161">
        <ele>360.823</ele>
        <time>1998-12-06T19:34:43Z</time>
      </trkpt>
      <trkpt lat="41.737003" lon="0.581169">
        <ele>361.008</ele>
        <time>1998-12-06T19:34:44Z</time>
      </trkpt>
      <trkpt lat="41.737016" lon="0.581193">
        <ele>361.468</ele>
        <time>1998-12-06T19:34:46Z</time>
      </trkpt>
      <trkpt lat="41.737009" lon="0.581246">
        <ele>361.866</ele>
        <time>1998-12-06T19:34:48Z</time>
      </trkpt>
      <trkpt lat="41.737002" lon="0.581383">
        <ele>362.416</ele>
        <time>1998-12-06T19:34:53Z</time>
      </trkpt>
      <trkpt lat="41.737028" lon="0.58112">
        <ele>361.855</ele>
        <time>1998-12-06T19:35:01Z</time>
      </trkpt>
      <trkpt lat="41.737024" lon="0.580866">
        <ele>361.095</ele>
        <time>1998-12-06T19:35:07Z</time>
      </trkpt>
      <trkpt lat="41.737026" lon="0.580826">
        <ele>360.847</ele>
        <time>1998-12-06T19:35:08Z</time>
      </trkpt>
      <trkpt lat="41.737024" lon="0.580581">
        <ele>361.457</ele>
        <time>1998-12-06T19:35:15Z</time>
      </trkpt>
      <trkpt lat="41.737014" lon="0.580533">
        <ele>362.013</ele>
        <time>1998-12-06T19:35:17Z</time>
      </trkpt>
      <trkpt lat="41.736988" lon="0.580448">
        <ele>363.228</ele>
        <time>1998-12-06T19:35:20Z</time>
      </trkpt>
      <trkpt lat="41.736941" lon="0.580339">
        <ele>364.489</ele>
        <time>1998-12-06T19:35:24Z</time>
      </trkpt>
      <trkpt lat="41.736911" lon="0.580261">
        <ele>365.817</ele>
        <time>1998-12-06T19:35:27Z</time>
      </trkpt>
      <trkpt lat="41.736872" lon="0.580157">
        <ele>367.008</ele>
        <time>1998-12-06T19:35:31Z</time>
      </trkpt>
      <trkpt lat="41.736819" lon="0.58002">
        <ele>368.285</ele>
        <time>1998-12-06T19:35:36Z</time>
      </trkpt>
      <trkpt lat="41.736769" lon="0.579948">
        <ele>369.253</ele>
        <time>1998-12-06T19:35:39Z</time>
      </trkpt>
      <trkpt lat="41.736614" lon="0.579821">
        <ele>370.233</ele>
        <time>1998-12-06T19:35:46Z</time>
      </trkpt>
      <trkpt lat="41.736573" lon="0.579798">
        <ele>370.282</ele>
        <time>1998-12-06T19:35:48Z</time>
      </trkpt>
      <trkpt lat="41.736453" lon="0.579718">
        <ele>371.472</ele>
        <time>1998-12-06T19:35:53Z</time>
      </trkpt>
      <trkpt lat="41.73633" lon="0.579543">
        <ele>371.894</ele>
        <time>1998-12-06T19:35:59Z</time>
      </trkpt>
      <trkpt lat="41.736271" lon="0.57946">
        <ele>371.854</ele>
        <time>1998-12-06T19:36:02Z</time>
      </trkpt>
      <trkpt lat="41.73611" lon="0.579322">
        <ele>371.24</ele>
        <time>1998-12-06T19:36:09Z</time>
      </trkpt>
      <trkpt lat="41.735948" lon="0.579155">
        <ele>371.439</ele>
        <time>1998-12-06T19:36:16Z</time>
      </trkpt>
      <trkpt lat="41.735859" lon="0.578925">
        <ele>371.401</ele>
        <time>1998-12-06T19:36:22Z</time>
      </trkpt>
      <trkpt lat="41.73585" lon="0.578794">
        <ele>371.221</ele>
        <time>1998-12-06T19:36:26Z</time>
      </trkpt>
      <trkpt lat="41.735741" lon="0.578596">
        <ele>370.408</ele>
        <time>1998-12-06T19:36:32Z</time>
      </trkpt>
      <trkpt lat="41.735722" lon="0.578562">
        <ele>370.266</ele>
        <time>1998-12-06T19:36:33Z</time>
      </trkpt>
      <trkpt lat="41.735581" lon="0.578373">
        <ele>369.664</ele>
        <time>1998-12-06T19:36:40Z</time>
      </trkpt>
      <trkpt lat="41.735448" lon="0.578208">
        <ele>369.444</ele>
        <time>1998-12-06T19:36:46Z</time>
      </trkpt>
      <trkpt lat="41.735359" lon="0.578121">
        <ele>369.263</ele>
        <time>1998-12-06T19:36:50Z</time>
      </trkpt>
      <trkpt lat="41.735202" lon="0.578006">
        <ele>369.213</ele>
        <time>1998-12-06T19:36:56Z</time>
      </trkpt>
      <trkpt lat="41.735017" lon="0.577924">
        <ele>368.865</ele>
        <time>1998-12-06T19:37:02Z</time>
      </trkpt>
      <trkpt lat="41.734845" lon="0.577848">
        <ele>368.485</ele>
        <time>1998-12-06T19:37:07Z</time>
      </trkpt>
      <trkpt lat="41.734814" lon="0.577832">
        <ele>368.061</ele>
        <time>1998-12-06T19:37:08Z</time>
      </trkpt>
      <trkpt lat="41.734685" lon="0.577815">
        <ele>367.442</ele>
        <time>1998-12-06T19:37:13Z</time>
      </trkpt>
      <trkpt lat="41.73468" lon="0.577845">
        <ele>367.222</ele>
        <time>1998-12-06T19:37:15Z</time>
      </trkpt>
      <trkpt lat="41.734702" lon="0.577906">
        <ele>367.014</ele>
        <time>1998-12-06T19:37:17Z</time>
      </trkpt>
      <trkpt lat="41.734771" lon="0.577991">
        <ele>366.008</ele>
        <time>1998-12-06T19:37:20Z</time>
      </trkpt>
      <trkpt lat="41.73485" lon="0.578059">
        <ele>364.687</ele>
        <time>1998-12-06T19:37:23Z</time>
      </trkpt>
      <trkpt lat="41.734907" lon="0.578103">
        <ele>363.485</ele>
        <time>1998-12-06T19:37:25Z</time>
      </trkpt>
      <trkpt lat="41.734949" lon="0.578144">
        <ele>362.035</ele>
        <time>1998-12-06T19:37:27Z</time>
      </trkpt>
      <trkpt lat="41.734996" lon="0.578182">
        <ele>360.624</ele>
        <time>1998-12-06T19:37:29Z</time>
      </trkpt>
      <trkpt lat="41.735038" lon="0.578208">
        <ele>359.254</ele>
        <time>1998-12-06T19:37:31Z</time>
      </trkpt>
      <trkpt lat="41.73512" lon="0.578263">
        <ele>358.096</ele>
        <time>1998-12-06T19:37:34Z</time>
      </trkpt>
      <trkpt lat="41.735202" lon="0.578342">
        <ele>356.676</ele>
        <time>1998-12-06T19:37:37Z</time>
      </trkpt>
      <trkpt lat="41.735242" lon="0.578409">
        <ele>355.472</ele>
        <time>1998-12-06T19:37:39Z</time>
      </trkpt>
      <trkpt lat="41.735293" lon="0.578481">
        <ele>354.215</ele>
        <time>1998-12-06T19:37:41Z</time>
      </trkpt>
      <trkpt lat="41.73535" lon="0.578587">
        <ele>352.865</ele>
        <time>1998-12-06T19:37:44Z</time>
      </trkpt>
      <trkpt lat="41.735409" lon="0.578682">
        <ele>351.411</ele>
        <time>1998-12-06T19:37:47Z</time>
      </trkpt>
      <trkpt lat="41.735455" lon="0.578747">
        <ele>350.208</ele>
        <time>1998-12-06T19:37:49Z</time>
      </trkpt>
      <trkpt lat="41.735498" lon="0.578826">
        <ele>348.834</ele>
        <time>1998-12-06T19:37:51Z</time>
      </trkpt>
      <trkpt lat="41.735525" lon="0.579015">
        <ele>347.242</ele>
        <time>1998-12-06T19:37:55Z</time>
      </trkpt>
      <trkpt lat="41.735514" lon="0.579105">
        <ele>345.452</ele>
        <time>1998-12-06T19:37:57Z</time>
      </trkpt>
      <trkpt lat="41.735479" lon="0.579237">
        <ele>344.251</ele>
        <time>1998-12-06T19:38:00Z</time>
      </trkpt>
      <trkpt lat="41.735435" lon="0.579367">
        <ele>342.431</ele>
        <time>1998-12-06T19:38:03Z</time>
      </trkpt>
      <trkpt lat="41.735408" lon="0.579456">
        <ele>341.033</ele>
        <time>1998-12-06T19:38:05Z</time>
      </trkpt>
      <trkpt lat="41.735403" lon="0.579574">
        <ele>339.623</ele>
        <time>1998-12-06T19:38:08Z</time>
      </trkpt>
      <trkpt lat="41.735431" lon="0.579692">
        <ele>338.259</ele>
        <time>1998-12-06T19:38:11Z</time>
      </trkpt>
      <trkpt lat="41.735493" lon="0.579854">
        <ele>336.812</ele>
        <time>1998-12-06T19:38:15Z</time>
      </trkpt>
      <trkpt lat="41.735522" lon="0.57994">
        <ele>335.232</ele>
        <time>1998-12-06T19:38:17Z</time>
      </trkpt>
      <trkpt lat="41.735556" lon="0.580031">
        <ele>333.605</ele>
        <time>1998-12-06T19:38:19Z</time>
      </trkpt>
      <trkpt lat="41.735583" lon="0.580124">
        <ele>332.408</ele>
        <time>1998-12-06T19:38:21Z</time>
      </trkpt>
      <trkpt lat="41.735591" lon="0.580224">
        <ele>331.244</ele>
        <time>1998-12-06T19:38:23Z</time>
      </trkpt>
      <trkpt lat="41.735551" lon="0.580364">
        <ele>330.052</ele>
        <time>1998-12-06T19:38:26Z</time>
      </trkpt>
      <trkpt lat="41.735507" lon="0.580444">
        <ele>328.412</ele>
        <time>1998-12-06T19:38:28Z</time>
      </trkpt>
      <trkpt lat="41.735452" lon="0.580523">
        <ele>327.231</ele>
        <time>1998-12-06T19:38:30Z</time>
      </trkpt>
      <trkpt lat="41.735392" lon="0.580601">
        <ele>326.251</ele>
        <time>1998-12-06T19:38:32Z</time>
      </trkpt>
      <trkpt lat="41.735296" lon="0.580713">
        <ele>324.853</ele>
        <time>1998-12-06T19:38:35Z</time>
      </trkpt>
      <trkpt lat="41.735244" lon="0.580789">
        <ele>323.613</ele>
        <time>1998-12-06T19:38:37Z</time>
      </trkpt>
      <trkpt lat="41.735205" lon="0.580864">
        <ele>322.639</ele>
        <time>1998-12-06T19:38:39Z</time>
      </trkpt>
      <trkpt lat="41.735168" lon="0.580945">
        <ele>321.462</ele>
        <time>1998-12-06T19:38:41Z</time>
      </trkpt>
      <trkpt lat="41.735132" lon="0.581024">
        <ele>320.283</ele>
        <time>1998-12-06T19:38:43Z</time>
      </trkpt>
      <trkpt lat="41.735065" lon="0.581186">
        <ele>319.211</ele>
        <time>1998-12-06T19:38:47Z</time>
      </trkpt>
      <trkpt lat="41.735002" lon="0.581356">
        <ele>318.008</ele>
        <time>1998-12-06T19:38:51Z</time>
      </trkpt>
      <trkpt lat="41.734921" lon="0.581589">
        <ele>317.059</ele>
        <time>1998-12-06T19:38:56Z</time>
      </trkpt>
      <trkpt lat="41.734814" lon="0.581797">
        <ele>316.067</ele>
        <time>1998-12-06T19:39:01Z</time>
      </trkpt>
      <trkpt lat="41.734796" lon="0.581839">
        <ele>315.637</ele>
        <time>1998-12-06T19:39:02Z</time>
      </trkpt>
      <trkpt lat="41.734737" lon="0.581958">
        <ele>314.436</ele>
        <time>1998-12-06T19:39:05Z</time>
      </trkpt>
      <trkpt lat="41.734634" lon="0.582138">
        <ele>313.426</ele>
        <time>1998-12-06T19:39:10Z</time>
      </trkpt>
      <trkpt lat="41.734612" lon="0.582265">
        <ele>312.228</ele>
        <time>1998-12-06T19:39:13Z</time>
      </trkpt>
      <trkpt lat="41.734585" lon="0.582441">
        <ele>311.228</ele>
        <time>1998-12-06T19:39:17Z</time>
      </trkpt>
      <trkpt lat="41.734515" lon="0.58261">
        <ele>310.034</ele>
        <time>1998-12-06T19:39:21Z</time>
      </trkpt>
      <trkpt lat="41.734416" lon="0.582733">
        <ele>308.834</ele>
        <time>1998-12-06T19:39:25Z</time>
      </trkpt>
      <trkpt lat="41.73434" lon="0.582818">
        <ele>307.455</ele>
        <time>1998-12-06T19:39:28Z</time>
      </trkpt>
      <trkpt lat="41.734282" lon="0.582919">
        <ele>306.41</ele>
        <time>1998-12-06T19:39:31Z</time>
      </trkpt>
      <trkpt lat="41.734276" lon="0.583051">
        <ele>305.408</ele>
        <time>1998-12-06T19:39:34Z</time>
      </trkpt>
      <trkpt lat="41.734288" lon="0.583218">
        <ele>304.266</ele>
        <time>1998-12-06T19:39:38Z</time>
      </trkpt>
      <trkpt lat="41.734286" lon="0.583448">
        <ele>303.084</ele>
        <time>1998-12-06T19:39:43Z</time>
      </trkpt>
      <trkpt lat="41.734276" lon="0.58353">
        <ele>302.824</ele>
        <time>1998-12-06T19:39:46Z</time>
      </trkpt>
      <trkpt lat="41.734063" lon="0.583605">
        <ele>302.083</ele>
        <time>1998-12-06T19:39:53Z</time>
      </trkpt>
      <trkpt lat="41.733926" lon="0.583661">
        <ele>300.893</ele>
        <time>1998-12-06T19:39:57Z</time>
      </trkpt>
      <trkpt lat="41.733752" lon="0.583583">
        <ele>300.275</ele>
        <time>1998-12-06T19:40:02Z</time>
      </trkpt>
      <trkpt lat="41.733727" lon="0.583551">
        <ele>299.865</ele>
        <time>1998-12-06T19:40:03Z</time>
      </trkpt>
      <trkpt lat="41.733647" lon="0.58346">
        <ele>298.461</ele>
        <time>1998-12-06T19:40:06Z</time>
      </trkpt>
      <trkpt lat="41.733549" lon="0.583336">
        <ele>297.497</ele>
        <time>1998-12-06T19:40:10Z</time>
      </trkpt>
      <trkpt lat="41.733396" lon="0.583164">
        <ele>297.023</ele>
        <time>1998-12-06T19:40:16Z</time>
      </trkpt>
      <trkpt lat="41.733351" lon="0.58309">
        <ele>297.025</ele>
        <time>1998-12-06T19:40:18Z</time>
      </trkpt>
      <trkpt lat="41.733374" lon="0.582821">
        <ele>297.208</ele>
        <time>1998-12-06T19:40:24Z</time>
      </trkpt>
      <trkpt lat="41.733461" lon="0.58258">
        <ele>297.682</ele>
        <time>1998-12-06T19:40:30Z</time>
      </trkpt>
      <trkpt lat="41.733568" lon="0.582342">
        <ele>297.67</ele>
        <time>1998-12-06T19:40:37Z</time>
      </trkpt>
      <trkpt lat="41.73359" lon="0.582295">
        <ele>297.88</ele>
        <time>1998-12-06T19:40:39Z</time>
      </trkpt>
    </trkseg>
  </trk>
</gpx>
